<?xml version="1.0" encoding="utf-8"?>
<gpx xmlns:xsi="http://www.w3.org/2001/XMLSchema-instance" xmlns:xsd="http://www.w3.org/2001/XMLSchema" version="1.1" creator="Shapelink.com" xmlns="http://www.topografix.com/GPX/1/1" xmlns:gpxtpx="http://www.garmin.com/xmlschemas/TrackPointExtension/v1">
  <metadata>
    <name>Löpning 9.06 km, 2017-12-09</name>
    <desc></desc>
    <author><name>Bengt-Åke Forslund</name></author> 
    <time>2017-12-09T17:33:34Z</time>
  </metadata>
  <trk>
    <name>Löpning 9.06 km, 2017-12-09</name>
    <trkseg>
      <trkpt lat="59.8500059" lon="17.6027878">
        <ele>25.1317</ele>
        <time>2017-12-09T17:33:34Z</time>
      </trkpt>
      <trkpt lat="59.8499889" lon="17.6027462">
        <ele>26.5736</ele>
        <time>2017-12-09T17:33:37Z</time>
      </trkpt>
      <trkpt lat="59.8498873" lon="17.6026318">
        <ele>28.0155</ele>
        <time>2017-12-09T17:33:41Z</time>
      </trkpt>
      <trkpt lat="59.8497716" lon="17.6024882">
        <ele>28.4962</ele>
        <time>2017-12-09T17:33:48Z</time>
      </trkpt>
      <trkpt lat="59.8496715" lon="17.6023211">
        <ele>30.8995</ele>
        <time>2017-12-09T17:33:54Z</time>
      </trkpt>
      <trkpt lat="59.8497143" lon="17.6021283">
        <ele>29.4575</ele>
        <time>2017-12-09T17:33:59Z</time>
      </trkpt>
      <trkpt lat="59.8497843" lon="17.6019199">
        <ele>28.4962</ele>
        <time>2017-12-09T17:34:05Z</time>
      </trkpt>
      <trkpt lat="59.8498583" lon="17.601718">
        <ele>27.0543</ele>
        <time>2017-12-09T17:34:11Z</time>
      </trkpt>
      <trkpt lat="59.8499398" lon="17.6014778">
        <ele>25.6123</ele>
        <time>2017-12-09T17:34:18Z</time>
      </trkpt>
      <trkpt lat="59.8500149" lon="17.6012861">
        <ele>24.1703</ele>
        <time>2017-12-09T17:34:24Z</time>
      </trkpt>
      <trkpt lat="59.8500754" lon="17.6010892">
        <ele>25.1317</ele>
        <time>2017-12-09T17:34:30Z</time>
      </trkpt>
      <trkpt lat="59.8501597" lon="17.6008653">
        <ele>24.651</ele>
        <time>2017-12-09T17:34:37Z</time>
      </trkpt>
      <trkpt lat="59.8502607" lon="17.6007695">
        <ele>26.5736</ele>
        <time>2017-12-09T17:34:43Z</time>
      </trkpt>
      <trkpt lat="59.8503137" lon="17.6007007">
        <ele>26.5736</ele>
        <time>2017-12-09T17:34:46Z</time>
      </trkpt>
      <trkpt lat="59.8504074" lon="17.6006156">
        <ele>25.1317</ele>
        <time>2017-12-09T17:34:51Z</time>
      </trkpt>
      <trkpt lat="59.8504955" lon="17.6007291">
        <ele>24.1703</ele>
        <time>2017-12-09T17:34:55Z</time>
      </trkpt>
      <trkpt lat="59.8505824" lon="17.6008131">
        <ele>25.6123</ele>
        <time>2017-12-09T17:35:01Z</time>
      </trkpt>
      <trkpt lat="59.8506688" lon="17.6009648">
        <ele>26.5736</ele>
        <time>2017-12-09T17:35:07Z</time>
      </trkpt>
      <trkpt lat="59.8507354" lon="17.601056">
        <ele>28.9769</ele>
        <time>2017-12-09T17:35:11Z</time>
      </trkpt>
      <trkpt lat="59.8508529" lon="17.6011627">
        <ele>31.3801</ele>
        <time>2017-12-09T17:35:17Z</time>
      </trkpt>
      <trkpt lat="59.8508737" lon="17.6011551">
        <ele>32.3416</ele>
        <time>2017-12-09T17:35:18Z</time>
      </trkpt>
      <trkpt lat="59.8509483" lon="17.6009467">
        <ele>33.7834</ele>
        <time>2017-12-09T17:35:24Z</time>
      </trkpt>
      <trkpt lat="59.851027" lon="17.6007452">
        <ele>34.2642</ele>
        <time>2017-12-09T17:35:30Z</time>
      </trkpt>
      <trkpt lat="59.8510907" lon="17.6005158">
        <ele>35.2255</ele>
        <time>2017-12-09T17:35:36Z</time>
      </trkpt>
      <trkpt lat="59.8511783" lon="17.6003728">
        <ele>35.2255</ele>
        <time>2017-12-09T17:35:41Z</time>
      </trkpt>
      <trkpt lat="59.8511838" lon="17.600337">
        <ele>34.7449</ele>
        <time>2017-12-09T17:35:42Z</time>
      </trkpt>
      <trkpt lat="59.8513039" lon="17.6001422">
        <ele>34.2642</ele>
        <time>2017-12-09T17:35:49Z</time>
      </trkpt>
      <trkpt lat="59.8514313" lon="17.5999875">
        <ele>34.7449</ele>
        <time>2017-12-09T17:35:55Z</time>
      </trkpt>
      <trkpt lat="59.8514357" lon="17.5997393">
        <ele>32.3416</ele>
        <time>2017-12-09T17:36:00Z</time>
      </trkpt>
      <trkpt lat="59.8515042" lon="17.5995294">
        <ele>33.3029</ele>
        <time>2017-12-09T17:36:06Z</time>
      </trkpt>
      <trkpt lat="59.8515417" lon="17.599285">
        <ele>35.2255</ele>
        <time>2017-12-09T17:36:12Z</time>
      </trkpt>
      <trkpt lat="59.8515216" lon="17.5989788">
        <ele>35.7061</ele>
        <time>2017-12-09T17:36:18Z</time>
      </trkpt>
      <trkpt lat="59.851548" lon="17.5988653">
        <ele>35.7061</ele>
        <time>2017-12-09T17:36:21Z</time>
      </trkpt>
      <trkpt lat="59.8516118" lon="17.5988589">
        <ele>36.1868</ele>
        <time>2017-12-09T17:36:25Z</time>
      </trkpt>
      <trkpt lat="59.8517004" lon="17.5989172">
        <ele>35.7061</ele>
        <time>2017-12-09T17:36:30Z</time>
      </trkpt>
      <trkpt lat="59.8517961" lon="17.5990582">
        <ele>33.7834</ele>
        <time>2017-12-09T17:36:35Z</time>
      </trkpt>
      <trkpt lat="59.8519346" lon="17.5991984">
        <ele>33.7834</ele>
        <time>2017-12-09T17:36:41Z</time>
      </trkpt>
      <trkpt lat="59.8519523" lon="17.599206">
        <ele>33.7834</ele>
        <time>2017-12-09T17:36:42Z</time>
      </trkpt>
      <trkpt lat="59.8520903" lon="17.5992419">
        <ele>31.3801</ele>
        <time>2017-12-09T17:36:48Z</time>
      </trkpt>
      <trkpt lat="59.8522149" lon="17.5992363">
        <ele>28.9769</ele>
        <time>2017-12-09T17:36:53Z</time>
      </trkpt>
      <trkpt lat="59.852336" lon="17.5992379">
        <ele>27.0543</ele>
        <time>2017-12-09T17:36:58Z</time>
      </trkpt>
      <trkpt lat="59.8524344" lon="17.5992267">
        <ele>27.5349</ele>
        <time>2017-12-09T17:37:03Z</time>
      </trkpt>
      <trkpt lat="59.852551" lon="17.5992393">
        <ele>25.6123</ele>
        <time>2017-12-09T17:37:08Z</time>
      </trkpt>
      <trkpt lat="59.8526706" lon="17.5993072">
        <ele>25.1317</ele>
        <time>2017-12-09T17:37:13Z</time>
      </trkpt>
      <trkpt lat="59.8526797" lon="17.5993041">
        <ele>26.5736</ele>
        <time>2017-12-09T17:37:14Z</time>
      </trkpt>
      <trkpt lat="59.8527681" lon="17.5992154">
        <ele>26.5736</ele>
        <time>2017-12-09T17:37:19Z</time>
      </trkpt>
      <trkpt lat="59.8528626" lon="17.5991079">
        <ele>27.0543</ele>
        <time>2017-12-09T17:37:24Z</time>
      </trkpt>
      <trkpt lat="59.852996" lon="17.5989932">
        <ele>27.0543</ele>
        <time>2017-12-09T17:37:30Z</time>
      </trkpt>
      <trkpt lat="59.8531237" lon="17.598969">
        <ele>24.651</ele>
        <time>2017-12-09T17:37:35Z</time>
      </trkpt>
      <trkpt lat="59.8532133" lon="17.5988616">
        <ele>25.6123</ele>
        <time>2017-12-09T17:37:40Z</time>
      </trkpt>
      <trkpt lat="59.8532525" lon="17.598824">
        <ele>25.6123</ele>
        <time>2017-12-09T17:37:42Z</time>
      </trkpt>
      <trkpt lat="59.8533155" lon="17.5987089">
        <ele>25.6123</ele>
        <time>2017-12-09T17:37:46Z</time>
      </trkpt>
      <trkpt lat="59.8535122" lon="17.5986522">
        <ele>24.1703</ele>
        <time>2017-12-09T17:37:54Z</time>
      </trkpt>
      <trkpt lat="59.8536663" lon="17.5985462">
        <ele>23.6896</ele>
        <time>2017-12-09T17:38:01Z</time>
      </trkpt>
      <trkpt lat="59.8537464" lon="17.5983244">
        <ele>22.7283</ele>
        <time>2017-12-09T17:38:07Z</time>
      </trkpt>
      <trkpt lat="59.8537731" lon="17.5980369">
        <ele>23.209</ele>
        <time>2017-12-09T17:38:13Z</time>
      </trkpt>
      <trkpt lat="59.8538057" lon="17.5977286">
        <ele>22.2476</ele>
        <time>2017-12-09T17:38:20Z</time>
      </trkpt>
      <trkpt lat="59.85382" lon="17.5974969">
        <ele>21.2864</ele>
        <time>2017-12-09T17:38:25Z</time>
      </trkpt>
      <trkpt lat="59.8538767" lon="17.5971857">
        <ele>20.8057</ele>
        <time>2017-12-09T17:38:32Z</time>
      </trkpt>
      <trkpt lat="59.8539719" lon="17.5969667">
        <ele>19.8444</ele>
        <time>2017-12-09T17:38:38Z</time>
      </trkpt>
      <trkpt lat="59.854075" lon="17.5968741">
        <ele>19.3638</ele>
        <time>2017-12-09T17:38:44Z</time>
      </trkpt>
      <trkpt lat="59.8542184" lon="17.5966501">
        <ele>20.8057</ele>
        <time>2017-12-09T17:38:56Z</time>
      </trkpt>
      <trkpt lat="59.8544337" lon="17.5966644">
        <ele>20.325</ele>
        <time>2017-12-09T17:39:00Z</time>
      </trkpt>
      <trkpt lat="59.8545508" lon="17.5965654">
        <ele>20.8057</ele>
        <time>2017-12-09T17:39:06Z</time>
      </trkpt>
      <trkpt lat="59.8546337" lon="17.5964975">
        <ele>21.2864</ele>
        <time>2017-12-09T17:39:10Z</time>
      </trkpt>
      <trkpt lat="59.854653" lon="17.5964913">
        <ele>21.2864</ele>
        <time>2017-12-09T17:39:11Z</time>
      </trkpt>
      <trkpt lat="59.8547212" lon="17.5966291">
        <ele>21.767</ele>
        <time>2017-12-09T17:39:16Z</time>
      </trkpt>
      <trkpt lat="59.854781" lon="17.5969025">
        <ele>21.2864</ele>
        <time>2017-12-09T17:39:22Z</time>
      </trkpt>
      <trkpt lat="59.8548284" lon="17.5972005">
        <ele>23.209</ele>
        <time>2017-12-09T17:39:30Z</time>
      </trkpt>
      <trkpt lat="59.8548831" lon="17.5974958">
        <ele>24.1703</ele>
        <time>2017-12-09T17:39:37Z</time>
      </trkpt>
      <trkpt lat="59.8549301" lon="17.5977654">
        <ele>24.1703</ele>
        <time>2017-12-09T17:39:44Z</time>
      </trkpt>
      <trkpt lat="59.8549628" lon="17.5979538">
        <ele>25.1317</ele>
        <time>2017-12-09T17:39:49Z</time>
      </trkpt>
      <trkpt lat="59.8550082" lon="17.5982116">
        <ele>24.651</ele>
        <time>2017-12-09T17:39:55Z</time>
      </trkpt>
      <trkpt lat="59.8550669" lon="17.598517">
        <ele>23.6896</ele>
        <time>2017-12-09T17:40:02Z</time>
      </trkpt>
      <trkpt lat="59.8551048" lon="17.5987714">
        <ele>25.1317</ele>
        <time>2017-12-09T17:40:08Z</time>
      </trkpt>
      <trkpt lat="59.8551484" lon="17.598968">
        <ele>26.0929</ele>
        <time>2017-12-09T17:40:13Z</time>
      </trkpt>
      <trkpt lat="59.8552188" lon="17.599197">
        <ele>26.0929</ele>
        <time>2017-12-09T17:40:19Z</time>
      </trkpt>
      <trkpt lat="59.8553274" lon="17.5992949">
        <ele>25.6123</ele>
        <time>2017-12-09T17:40:24Z</time>
      </trkpt>
      <trkpt lat="59.8553943" lon="17.5994539">
        <ele>27.0543</ele>
        <time>2017-12-09T17:40:29Z</time>
      </trkpt>
      <trkpt lat="59.8554368" lon="17.5996898">
        <ele>27.5349</ele>
        <time>2017-12-09T17:40:35Z</time>
      </trkpt>
      <trkpt lat="59.8554704" lon="17.5998832">
        <ele>27.5349</ele>
        <time>2017-12-09T17:40:40Z</time>
      </trkpt>
      <trkpt lat="59.8555086" lon="17.6001267">
        <ele>28.9769</ele>
        <time>2017-12-09T17:40:47Z</time>
      </trkpt>
      <trkpt lat="59.8555573" lon="17.6003447">
        <ele>29.4575</ele>
        <time>2017-12-09T17:40:52Z</time>
      </trkpt>
      <trkpt lat="59.8555813" lon="17.6005054">
        <ele>30.4188</ele>
        <time>2017-12-09T17:40:56Z</time>
      </trkpt>
      <trkpt lat="59.8556052" lon="17.600666">
        <ele>31.8607</ele>
        <time>2017-12-09T17:41:00Z</time>
      </trkpt>
      <trkpt lat="59.8556222" lon="17.6009104">
        <ele>33.7834</ele>
        <time>2017-12-09T17:41:06Z</time>
      </trkpt>
      <trkpt lat="59.8556423" lon="17.6011755">
        <ele>32.3416</ele>
        <time>2017-12-09T17:41:12Z</time>
      </trkpt>
      <trkpt lat="59.8556524" lon="17.6013015">
        <ele>32.8223</ele>
        <time>2017-12-09T17:41:15Z</time>
      </trkpt>
      <trkpt lat="59.8556571" lon="17.6015247">
        <ele>35.7061</ele>
        <time>2017-12-09T17:41:21Z</time>
      </trkpt>
      <trkpt lat="59.8556438" lon="17.6017476">
        <ele>38.1094</ele>
        <time>2017-12-09T17:41:27Z</time>
      </trkpt>
      <trkpt lat="59.8556521" lon="17.6020448">
        <ele>38.5901</ele>
        <time>2017-12-09T17:41:34Z</time>
      </trkpt>
      <trkpt lat="59.8556527" lon="17.6023019">
        <ele>40.5128</ele>
        <time>2017-12-09T17:41:40Z</time>
      </trkpt>
      <trkpt lat="59.8556662" lon="17.6025017">
        <ele>38.5901</ele>
        <time>2017-12-09T17:41:44Z</time>
      </trkpt>
      <trkpt lat="59.8557341" lon="17.6028198">
        <ele>39.0707</ele>
        <time>2017-12-09T17:41:51Z</time>
      </trkpt>
      <trkpt lat="59.8557607" lon="17.6030343">
        <ele>40.0321</ele>
        <time>2017-12-09T17:41:56Z</time>
      </trkpt>
      <trkpt lat="59.8558021" lon="17.6032416">
        <ele>39.5513</ele>
        <time>2017-12-09T17:42:01Z</time>
      </trkpt>
      <trkpt lat="59.8558451" lon="17.6034594">
        <ele>37.1481</ele>
        <time>2017-12-09T17:42:06Z</time>
      </trkpt>
      <trkpt lat="59.8559118" lon="17.603641">
        <ele>39.5513</ele>
        <time>2017-12-09T17:42:10Z</time>
      </trkpt>
      <trkpt lat="59.8559639" lon="17.6039184">
        <ele>36.6675</ele>
        <time>2017-12-09T17:42:17Z</time>
      </trkpt>
      <trkpt lat="59.8560009" lon="17.6041983">
        <ele>34.2642</ele>
        <time>2017-12-09T17:42:24Z</time>
      </trkpt>
      <trkpt lat="59.8560564" lon="17.6044697">
        <ele>34.2642</ele>
        <time>2017-12-09T17:42:30Z</time>
      </trkpt>
      <trkpt lat="59.8561338" lon="17.6046767">
        <ele>36.1868</ele>
        <time>2017-12-09T17:42:36Z</time>
      </trkpt>
      <trkpt lat="59.8561972" lon="17.6047208">
        <ele>39.5513</ele>
        <time>2017-12-09T17:42:40Z</time>
      </trkpt>
      <trkpt lat="59.8563051" lon="17.6046938">
        <ele>42.4354</ele>
        <time>2017-12-09T17:42:45Z</time>
      </trkpt>
      <trkpt lat="59.8563892" lon="17.6046835">
        <ele>39.0707</ele>
        <time>2017-12-09T17:42:49Z</time>
      </trkpt>
      <trkpt lat="59.8564916" lon="17.6046261">
        <ele>37.6287</ele>
        <time>2017-12-09T17:42:54Z</time>
      </trkpt>
      <trkpt lat="59.8566161" lon="17.6046066">
        <ele>39.0707</ele>
        <time>2017-12-09T17:43:00Z</time>
      </trkpt>
      <trkpt lat="59.8566609" lon="17.6046468">
        <ele>39.5513</ele>
        <time>2017-12-09T17:43:02Z</time>
      </trkpt>
      <trkpt lat="59.8567933" lon="17.6047379">
        <ele>41.474</ele>
        <time>2017-12-09T17:43:09Z</time>
      </trkpt>
      <trkpt lat="59.8569016" lon="17.6048012">
        <ele>41.474</ele>
        <time>2017-12-09T17:43:14Z</time>
      </trkpt>
      <trkpt lat="59.856988" lon="17.6047355">
        <ele>42.4354</ele>
        <time>2017-12-09T17:43:18Z</time>
      </trkpt>
      <trkpt lat="59.8570223" lon="17.6047044">
        <ele>42.916</ele>
        <time>2017-12-09T17:43:20Z</time>
      </trkpt>
      <trkpt lat="59.8570565" lon="17.6044726">
        <ele>46.7612</ele>
        <time>2017-12-09T17:43:26Z</time>
      </trkpt>
      <trkpt lat="59.8571137" lon="17.6042692">
        <ele>49.1646</ele>
        <time>2017-12-09T17:43:31Z</time>
      </trkpt>
      <trkpt lat="59.8571284" lon="17.6042296">
        <ele>49.1646</ele>
        <time>2017-12-09T17:43:32Z</time>
      </trkpt>
      <trkpt lat="59.8572265" lon="17.6039976">
        <ele>48.684</ele>
        <time>2017-12-09T17:43:39Z</time>
      </trkpt>
      <trkpt lat="59.8573069" lon="17.6038956">
        <ele>46.7612</ele>
        <time>2017-12-09T17:43:44Z</time>
      </trkpt>
      <trkpt lat="59.8573234" lon="17.6038798">
        <ele>45.7999</ele>
        <time>2017-12-09T17:43:45Z</time>
      </trkpt>
      <trkpt lat="59.85741" lon="17.6037528">
        <ele>43.8773</ele>
        <time>2017-12-09T17:43:50Z</time>
      </trkpt>
      <trkpt lat="59.8574261" lon="17.6037314">
        <ele>43.3966</ele>
        <time>2017-12-09T17:43:51Z</time>
      </trkpt>
      <trkpt lat="59.8575641" lon="17.6035252">
        <ele>40.9934</ele>
        <time>2017-12-09T17:43:58Z</time>
      </trkpt>
      <trkpt lat="59.8577212" lon="17.6033937">
        <ele>39.0707</ele>
        <time>2017-12-09T17:44:04Z</time>
      </trkpt>
      <trkpt lat="59.8578657" lon="17.6034928">
        <ele>40.0321</ele>
        <time>2017-12-09T17:44:09Z</time>
      </trkpt>
      <trkpt lat="59.8579237" lon="17.6036282">
        <ele>39.0707</ele>
        <time>2017-12-09T17:44:12Z</time>
      </trkpt>
      <trkpt lat="59.8580626" lon="17.6039708">
        <ele>40.9934</ele>
        <time>2017-12-09T17:44:19Z</time>
      </trkpt>
      <trkpt lat="59.8581425" lon="17.6040605">
        <ele>41.474</ele>
        <time>2017-12-09T17:44:23Z</time>
      </trkpt>
      <trkpt lat="59.8582947" lon="17.6040693">
        <ele>41.9547</ele>
        <time>2017-12-09T17:44:29Z</time>
      </trkpt>
      <trkpt lat="59.8584158" lon="17.6041122">
        <ele>40.9934</ele>
        <time>2017-12-09T17:44:34Z</time>
      </trkpt>
      <trkpt lat="59.8585441" lon="17.6041758">
        <ele>40.0321</ele>
        <time>2017-12-09T17:44:39Z</time>
      </trkpt>
      <trkpt lat="59.8586459" lon="17.6042589">
        <ele>41.9547</ele>
        <time>2017-12-09T17:44:44Z</time>
      </trkpt>
      <trkpt lat="59.8586774" lon="17.6042934">
        <ele>43.3966</ele>
        <time>2017-12-09T17:44:46Z</time>
      </trkpt>
      <trkpt lat="59.8588167" lon="17.6044603">
        <ele>44.358</ele>
        <time>2017-12-09T17:44:51Z</time>
      </trkpt>
      <trkpt lat="59.8588496" lon="17.6044973">
        <ele>44.358</ele>
        <time>2017-12-09T17:44:52Z</time>
      </trkpt>
      <trkpt lat="59.8589913" lon="17.604625">
        <ele>44.358</ele>
        <time>2017-12-09T17:44:58Z</time>
      </trkpt>
      <trkpt lat="59.8590717" lon="17.6048183">
        <ele>41.9547</ele>
        <time>2017-12-09T17:45:03Z</time>
      </trkpt>
      <trkpt lat="59.8591284" lon="17.6050587">
        <ele>42.916</ele>
        <time>2017-12-09T17:45:08Z</time>
      </trkpt>
      <trkpt lat="59.8591851" lon="17.6053359">
        <ele>44.358</ele>
        <time>2017-12-09T17:45:13Z</time>
      </trkpt>
      <trkpt lat="59.8592323" lon="17.6056113">
        <ele>41.474</ele>
        <time>2017-12-09T17:45:18Z</time>
      </trkpt>
      <trkpt lat="59.859309" lon="17.6058942">
        <ele>34.2642</ele>
        <time>2017-12-09T17:45:24Z</time>
      </trkpt>
      <trkpt lat="59.859422" lon="17.6061418">
        <ele>28.4962</ele>
        <time>2017-12-09T17:45:29Z</time>
      </trkpt>
      <trkpt lat="59.859539" lon="17.6063998">
        <ele>24.651</ele>
        <time>2017-12-09T17:45:36Z</time>
      </trkpt>
      <trkpt lat="59.8595994" lon="17.6064412">
        <ele>21.2864</ele>
        <time>2017-12-09T17:45:39Z</time>
      </trkpt>
      <trkpt lat="59.8597285" lon="17.6063095">
        <ele>23.209</ele>
        <time>2017-12-09T17:45:46Z</time>
      </trkpt>
      <trkpt lat="59.8597658" lon="17.606067">
        <ele>25.6123</ele>
        <time>2017-12-09T17:45:52Z</time>
      </trkpt>
      <trkpt lat="59.859789" lon="17.6059777">
        <ele>26.5736</ele>
        <time>2017-12-09T17:45:54Z</time>
      </trkpt>
      <trkpt lat="59.8598926" lon="17.6058339">
        <ele>29.9381</ele>
        <time>2017-12-09T17:46:00Z</time>
      </trkpt>
      <trkpt lat="59.8599766" lon="17.6056342">
        <ele>31.8607</ele>
        <time>2017-12-09T17:46:05Z</time>
      </trkpt>
      <trkpt lat="59.8599905" lon="17.6055768">
        <ele>32.3416</ele>
        <time>2017-12-09T17:46:06Z</time>
      </trkpt>
      <trkpt lat="59.8600377" lon="17.6052649">
        <ele>37.1481</ele>
        <time>2017-12-09T17:46:12Z</time>
      </trkpt>
      <trkpt lat="59.8601139" lon="17.6050353">
        <ele>39.5513</ele>
        <time>2017-12-09T17:46:18Z</time>
      </trkpt>
      <trkpt lat="59.8601885" lon="17.6047894">
        <ele>41.474</ele>
        <time>2017-12-09T17:46:24Z</time>
      </trkpt>
      <trkpt lat="59.8602569" lon="17.6045565">
        <ele>42.916</ele>
        <time>2017-12-09T17:46:29Z</time>
      </trkpt>
      <trkpt lat="59.8603516" lon="17.6043177">
        <ele>41.474</ele>
        <time>2017-12-09T17:46:36Z</time>
      </trkpt>
      <trkpt lat="59.8604352" lon="17.6041966">
        <ele>42.4354</ele>
        <time>2017-12-09T17:46:41Z</time>
      </trkpt>
      <trkpt lat="59.8605531" lon="17.6040786">
        <ele>42.4354</ele>
        <time>2017-12-09T17:46:47Z</time>
      </trkpt>
      <trkpt lat="59.8606971" lon="17.6039319">
        <ele>41.474</ele>
        <time>2017-12-09T17:46:53Z</time>
      </trkpt>
      <trkpt lat="59.8608086" lon="17.6038164">
        <ele>41.9547</ele>
        <time>2017-12-09T17:46:58Z</time>
      </trkpt>
      <trkpt lat="59.8609527" lon="17.6037743">
        <ele>43.3966</ele>
        <time>2017-12-09T17:47:04Z</time>
      </trkpt>
      <trkpt lat="59.8610672" lon="17.6038156">
        <ele>44.8386</ele>
        <time>2017-12-09T17:47:09Z</time>
      </trkpt>
      <trkpt lat="59.8611757" lon="17.60386">
        <ele>42.916</ele>
        <time>2017-12-09T17:47:13Z</time>
      </trkpt>
      <trkpt lat="59.8613069" lon="17.6039821">
        <ele>38.1094</ele>
        <time>2017-12-09T17:47:18Z</time>
      </trkpt>
      <trkpt lat="59.8614162" lon="17.6041086">
        <ele>36.1868</ele>
        <time>2017-12-09T17:47:23Z</time>
      </trkpt>
      <trkpt lat="59.861556" lon="17.6042522">
        <ele>31.3801</ele>
        <time>2017-12-09T17:47:29Z</time>
      </trkpt>
      <trkpt lat="59.8616859" lon="17.6042242">
        <ele>27.0543</ele>
        <time>2017-12-09T17:47:34Z</time>
      </trkpt>
      <trkpt lat="59.861727" lon="17.6041521">
        <ele>25.1317</ele>
        <time>2017-12-09T17:47:36Z</time>
      </trkpt>
      <trkpt lat="59.8617177" lon="17.6039521">
        <ele>21.2864</ele>
        <time>2017-12-09T17:47:41Z</time>
      </trkpt>
      <trkpt lat="59.8616575" lon="17.6038499">
        <ele>19.8444</ele>
        <time>2017-12-09T17:47:45Z</time>
      </trkpt>
      <trkpt lat="59.8616327" lon="17.6037989">
        <ele>20.325</ele>
        <time>2017-12-09T17:47:47Z</time>
      </trkpt>
      <trkpt lat="59.861625" lon="17.6034702">
        <ele>24.651</ele>
        <time>2017-12-09T17:47:55Z</time>
      </trkpt>
      <trkpt lat="59.8615819" lon="17.6034451">
        <ele>27.0543</ele>
        <time>2017-12-09T17:47:59Z</time>
      </trkpt>
      <trkpt lat="59.8615125" lon="17.6035848">
        <ele>28.4962</ele>
        <time>2017-12-09T17:48:04Z</time>
      </trkpt>
      <trkpt lat="59.8614297" lon="17.6036725">
        <ele>30.4188</ele>
        <time>2017-12-09T17:48:09Z</time>
      </trkpt>
      <trkpt lat="59.8613757" lon="17.6036495">
        <ele>28.4962</ele>
        <time>2017-12-09T17:48:11Z</time>
      </trkpt>
      <trkpt lat="59.861252" lon="17.6034605">
        <ele>26.5736</ele>
        <time>2017-12-09T17:48:17Z</time>
      </trkpt>
      <trkpt lat="59.8610976" lon="17.6033939">
        <ele>24.1703</ele>
        <time>2017-12-09T17:48:23Z</time>
      </trkpt>
      <trkpt lat="59.8609444" lon="17.6033389">
        <ele>25.1317</ele>
        <time>2017-12-09T17:48:29Z</time>
      </trkpt>
      <trkpt lat="59.8607884" lon="17.6033399">
        <ele>26.0929</ele>
        <time>2017-12-09T17:48:35Z</time>
      </trkpt>
      <trkpt lat="59.8607367" lon="17.6033281">
        <ele>28.9769</ele>
        <time>2017-12-09T17:48:40Z</time>
      </trkpt>
      <trkpt lat="59.8607086" lon="17.6033399">
        <ele>30.4188</ele>
        <time>2017-12-09T17:48:42Z</time>
      </trkpt>
      <trkpt lat="59.8605887" lon="17.6032786">
        <ele>28.0155</ele>
        <time>2017-12-09T17:48:48Z</time>
      </trkpt>
      <trkpt lat="59.8605149" lon="17.6031831">
        <ele>26.0929</ele>
        <time>2017-12-09T17:48:52Z</time>
      </trkpt>
      <trkpt lat="59.8604033" lon="17.6028778">
        <ele>24.1703</ele>
        <time>2017-12-09T17:49:00Z</time>
      </trkpt>
      <trkpt lat="59.8603434" lon="17.6026312">
        <ele>24.1703</ele>
        <time>2017-12-09T17:49:06Z</time>
      </trkpt>
      <trkpt lat="59.8603102" lon="17.6023385">
        <ele>25.6123</ele>
        <time>2017-12-09T17:49:13Z</time>
      </trkpt>
      <trkpt lat="59.86022" lon="17.6020963">
        <ele>28.9769</ele>
        <time>2017-12-09T17:49:18Z</time>
      </trkpt>
      <trkpt lat="59.8601404" lon="17.6019143">
        <ele>31.8607</ele>
        <time>2017-12-09T17:49:23Z</time>
      </trkpt>
      <trkpt lat="59.8600291" lon="17.6017466">
        <ele>32.3416</ele>
        <time>2017-12-09T17:49:28Z</time>
      </trkpt>
      <trkpt lat="59.859934" lon="17.6016634">
        <ele>31.8607</ele>
        <time>2017-12-09T17:49:32Z</time>
      </trkpt>
      <trkpt lat="59.8598301" lon="17.6015915">
        <ele>32.3416</ele>
        <time>2017-12-09T17:49:36Z</time>
      </trkpt>
      <trkpt lat="59.8597571" lon="17.6015408">
        <ele>31.3801</ele>
        <time>2017-12-09T17:49:40Z</time>
      </trkpt>
      <trkpt lat="59.8596762" lon="17.6014764">
        <ele>32.3416</ele>
        <time>2017-12-09T17:49:44Z</time>
      </trkpt>
      <trkpt lat="59.8595528" lon="17.6014061">
        <ele>29.4575</ele>
        <time>2017-12-09T17:49:49Z</time>
      </trkpt>
      <trkpt lat="59.8594461" lon="17.6013663">
        <ele>28.4962</ele>
        <time>2017-12-09T17:49:54Z</time>
      </trkpt>
      <trkpt lat="59.8593015" lon="17.6012501">
        <ele>26.5736</ele>
        <time>2017-12-09T17:50:01Z</time>
      </trkpt>
      <trkpt lat="59.859217" lon="17.6011529">
        <ele>24.651</ele>
        <time>2017-12-09T17:50:05Z</time>
      </trkpt>
      <trkpt lat="59.8591695" lon="17.6010708">
        <ele>23.209</ele>
        <time>2017-12-09T17:50:09Z</time>
      </trkpt>
      <trkpt lat="59.859078" lon="17.6007467">
        <ele>21.2864</ele>
        <time>2017-12-09T17:50:15Z</time>
      </trkpt>
      <trkpt lat="59.8590058" lon="17.6004458">
        <ele>21.767</ele>
        <time>2017-12-09T17:50:21Z</time>
      </trkpt>
      <trkpt lat="59.8589376" lon="17.6001728">
        <ele>21.2864</ele>
        <time>2017-12-09T17:50:27Z</time>
      </trkpt>
      <trkpt lat="59.8589278" lon="17.5998396">
        <ele>21.2864</ele>
        <time>2017-12-09T17:50:34Z</time>
      </trkpt>
      <trkpt lat="59.859021" lon="17.5995415">
        <ele>20.325</ele>
        <time>2017-12-09T17:50:41Z</time>
      </trkpt>
      <trkpt lat="59.859131" lon="17.5991609">
        <ele>19.8444</ele>
        <time>2017-12-09T17:50:50Z</time>
      </trkpt>
      <trkpt lat="59.8592187" lon="17.5988696">
        <ele>18.8831</ele>
        <time>2017-12-09T17:50:57Z</time>
      </trkpt>
      <trkpt lat="59.8592856" lon="17.598569">
        <ele>17.9218</ele>
        <time>2017-12-09T17:51:04Z</time>
      </trkpt>
      <trkpt lat="59.8592953" lon="17.5982603">
        <ele>16.9604</ele>
        <time>2017-12-09T17:51:10Z</time>
      </trkpt>
      <trkpt lat="59.8592834" lon="17.5980573">
        <ele>16.9604</ele>
        <time>2017-12-09T17:51:14Z</time>
      </trkpt>
      <trkpt lat="59.8592093" lon="17.5978324">
        <ele>17.4412</ele>
        <time>2017-12-09T17:51:20Z</time>
      </trkpt>
      <trkpt lat="59.8591158" lon="17.5976836">
        <ele>16.9604</ele>
        <time>2017-12-09T17:51:25Z</time>
      </trkpt>
      <trkpt lat="59.8590187" lon="17.5974953">
        <ele>16.4797</ele>
        <time>2017-12-09T17:51:30Z</time>
      </trkpt>
      <trkpt lat="59.8589889" lon="17.597227">
        <ele>16.4797</ele>
        <time>2017-12-09T17:51:36Z</time>
      </trkpt>
      <trkpt lat="59.859009" lon="17.5968737">
        <ele>16.4797</ele>
        <time>2017-12-09T17:51:43Z</time>
      </trkpt>
      <trkpt lat="59.8590101" lon="17.5965156">
        <ele>16.9604</ele>
        <time>2017-12-09T17:51:50Z</time>
      </trkpt>
      <trkpt lat="59.8590269" lon="17.5961567">
        <ele>16.9604</ele>
        <time>2017-12-09T17:51:57Z</time>
      </trkpt>
      <trkpt lat="59.8590414" lon="17.5958078">
        <ele>16.9604</ele>
        <time>2017-12-09T17:52:04Z</time>
      </trkpt>
      <trkpt lat="59.8590554" lon="17.5955231">
        <ele>16.9604</ele>
        <time>2017-12-09T17:52:10Z</time>
      </trkpt>
      <trkpt lat="59.8590642" lon="17.5951957">
        <ele>17.4412</ele>
        <time>2017-12-09T17:52:17Z</time>
      </trkpt>
      <trkpt lat="59.8590789" lon="17.5947739">
        <ele>17.9218</ele>
        <time>2017-12-09T17:52:26Z</time>
      </trkpt>
      <trkpt lat="59.8590893" lon="17.5945318">
        <ele>16.9604</ele>
        <time>2017-12-09T17:52:31Z</time>
      </trkpt>
      <trkpt lat="59.859098" lon="17.5941927">
        <ele>17.4412</ele>
        <time>2017-12-09T17:52:38Z</time>
      </trkpt>
      <trkpt lat="59.859085" lon="17.593919">
        <ele>16.9604</ele>
        <time>2017-12-09T17:52:44Z</time>
      </trkpt>
      <trkpt lat="59.8590917" lon="17.5936888">
        <ele>16.4797</ele>
        <time>2017-12-09T17:52:49Z</time>
      </trkpt>
      <trkpt lat="59.8591115" lon="17.593364">
        <ele>16.9604</ele>
        <time>2017-12-09T17:52:57Z</time>
      </trkpt>
      <trkpt lat="59.8591193" lon="17.5931385">
        <ele>17.9218</ele>
        <time>2017-12-09T17:53:03Z</time>
      </trkpt>
      <trkpt lat="59.8591565" lon="17.5929197">
        <ele>19.3638</ele>
        <time>2017-12-09T17:53:09Z</time>
      </trkpt>
      <trkpt lat="59.859184" lon="17.5927746">
        <ele>20.325</ele>
        <time>2017-12-09T17:53:13Z</time>
      </trkpt>
      <trkpt lat="59.8592095" lon="17.5926031">
        <ele>21.767</ele>
        <time>2017-12-09T17:53:18Z</time>
      </trkpt>
      <trkpt lat="59.859267" lon="17.5923268">
        <ele>27.0543</ele>
        <time>2017-12-09T17:53:25Z</time>
      </trkpt>
      <trkpt lat="59.8592878" lon="17.5920419">
        <ele>28.0155</ele>
        <time>2017-12-09T17:53:32Z</time>
      </trkpt>
      <trkpt lat="59.85931" lon="17.5919146">
        <ele>29.4575</ele>
        <time>2017-12-09T17:53:36Z</time>
      </trkpt>
      <trkpt lat="59.8593358" lon="17.5917531">
        <ele>31.8607</ele>
        <time>2017-12-09T17:53:41Z</time>
      </trkpt>
      <trkpt lat="59.8593821" lon="17.5915304">
        <ele>33.7834</ele>
        <time>2017-12-09T17:53:48Z</time>
      </trkpt>
      <trkpt lat="59.8594225" lon="17.5913742">
        <ele>34.2642</ele>
        <time>2017-12-09T17:53:53Z</time>
      </trkpt>
      <trkpt lat="59.8594311" lon="17.5911895">
        <ele>33.7834</ele>
        <time>2017-12-09T17:53:59Z</time>
      </trkpt>
      <trkpt lat="59.8594363" lon="17.5909595">
        <ele>31.8607</ele>
        <time>2017-12-09T17:54:05Z</time>
      </trkpt>
      <trkpt lat="59.8594532" lon="17.5907907">
        <ele>31.3801</ele>
        <time>2017-12-09T17:54:09Z</time>
      </trkpt>
      <trkpt lat="59.8594763" lon="17.5906682">
        <ele>30.8995</ele>
        <time>2017-12-09T17:54:12Z</time>
      </trkpt>
      <trkpt lat="59.8595502" lon="17.5904399">
        <ele>28.4962</ele>
        <time>2017-12-09T17:54:18Z</time>
      </trkpt>
      <trkpt lat="59.8596555" lon="17.5902435">
        <ele>26.0929</ele>
        <time>2017-12-09T17:54:24Z</time>
      </trkpt>
      <trkpt lat="59.8597022" lon="17.5900268">
        <ele>28.0155</ele>
        <time>2017-12-09T17:54:29Z</time>
      </trkpt>
      <trkpt lat="59.8597621" lon="17.5898085">
        <ele>30.4188</ele>
        <time>2017-12-09T17:54:34Z</time>
      </trkpt>
      <trkpt lat="59.8597673" lon="17.5895252">
        <ele>30.4188</ele>
        <time>2017-12-09T17:54:39Z</time>
      </trkpt>
      <trkpt lat="59.8598022" lon="17.5892977">
        <ele>29.9381</ele>
        <time>2017-12-09T17:54:44Z</time>
      </trkpt>
      <trkpt lat="59.8598478" lon="17.5890625">
        <ele>28.9769</ele>
        <time>2017-12-09T17:54:49Z</time>
      </trkpt>
      <trkpt lat="59.8598941" lon="17.5887947">
        <ele>27.0543</ele>
        <time>2017-12-09T17:54:55Z</time>
      </trkpt>
      <trkpt lat="59.8598543" lon="17.5886015">
        <ele>27.0543</ele>
        <time>2017-12-09T17:55:00Z</time>
      </trkpt>
      <trkpt lat="59.8598118" lon="17.5884678">
        <ele>28.0155</ele>
        <time>2017-12-09T17:55:05Z</time>
      </trkpt>
      <trkpt lat="59.859746" lon="17.5882983">
        <ele>27.5349</ele>
        <time>2017-12-09T17:55:10Z</time>
      </trkpt>
      <trkpt lat="59.8596456" lon="17.5881498">
        <ele>25.1317</ele>
        <time>2017-12-09T17:55:15Z</time>
      </trkpt>
      <trkpt lat="59.8595317" lon="17.5880141">
        <ele>23.209</ele>
        <time>2017-12-09T17:55:20Z</time>
      </trkpt>
      <trkpt lat="59.8593944" lon="17.5878037">
        <ele>23.209</ele>
        <time>2017-12-09T17:55:27Z</time>
      </trkpt>
      <trkpt lat="59.8592686" lon="17.5875058">
        <ele>24.651</ele>
        <time>2017-12-09T17:55:35Z</time>
      </trkpt>
      <trkpt lat="59.8591706" lon="17.5872505">
        <ele>24.651</ele>
        <time>2017-12-09T17:55:42Z</time>
      </trkpt>
      <trkpt lat="59.859079" lon="17.5870739">
        <ele>25.1317</ele>
        <time>2017-12-09T17:55:48Z</time>
      </trkpt>
      <trkpt lat="59.8590052" lon="17.5869914">
        <ele>25.6123</ele>
        <time>2017-12-09T17:55:52Z</time>
      </trkpt>
      <trkpt lat="59.8589038" lon="17.5868439">
        <ele>25.6123</ele>
        <time>2017-12-09T17:55:58Z</time>
      </trkpt>
      <trkpt lat="59.8587878" lon="17.5867051">
        <ele>26.5736</ele>
        <time>2017-12-09T17:56:04Z</time>
      </trkpt>
      <trkpt lat="59.8586506" lon="17.5865377">
        <ele>28.0155</ele>
        <time>2017-12-09T17:56:11Z</time>
      </trkpt>
      <trkpt lat="59.8584941" lon="17.5863464">
        <ele>29.4575</ele>
        <time>2017-12-09T17:56:19Z</time>
      </trkpt>
      <trkpt lat="59.8583823" lon="17.5862952">
        <ele>29.4575</ele>
        <time>2017-12-09T17:56:24Z</time>
      </trkpt>
      <trkpt lat="59.8582589" lon="17.5862692">
        <ele>30.4188</ele>
        <time>2017-12-09T17:56:30Z</time>
      </trkpt>
      <trkpt lat="59.8581373" lon="17.5862088">
        <ele>30.8995</ele>
        <time>2017-12-09T17:56:36Z</time>
      </trkpt>
      <trkpt lat="59.8580119" lon="17.5861594">
        <ele>31.3801</ele>
        <time>2017-12-09T17:56:42Z</time>
      </trkpt>
      <trkpt lat="59.8578704" lon="17.5861048">
        <ele>31.3801</ele>
        <time>2017-12-09T17:56:48Z</time>
      </trkpt>
      <trkpt lat="59.8576751" lon="17.5860336">
        <ele>30.8995</ele>
        <time>2017-12-09T17:56:56Z</time>
      </trkpt>
      <trkpt lat="59.8575447" lon="17.5859057">
        <ele>29.9381</ele>
        <time>2017-12-09T17:57:02Z</time>
      </trkpt>
      <trkpt lat="59.8574218" lon="17.5857405">
        <ele>28.9769</ele>
        <time>2017-12-09T17:57:08Z</time>
      </trkpt>
      <trkpt lat="59.8572938" lon="17.5856091">
        <ele>28.4962</ele>
        <time>2017-12-09T17:57:14Z</time>
      </trkpt>
      <trkpt lat="59.8572125" lon="17.5855374">
        <ele>29.9381</ele>
        <time>2017-12-09T17:57:18Z</time>
      </trkpt>
      <trkpt lat="59.8570891" lon="17.5854692">
        <ele>30.4188</ele>
        <time>2017-12-09T17:57:24Z</time>
      </trkpt>
      <trkpt lat="59.8569569" lon="17.5854075">
        <ele>29.9381</ele>
        <time>2017-12-09T17:57:30Z</time>
      </trkpt>
      <trkpt lat="59.8568156" lon="17.5853366">
        <ele>29.9381</ele>
        <time>2017-12-09T17:57:36Z</time>
      </trkpt>
      <trkpt lat="59.8566769" lon="17.5852684">
        <ele>28.4962</ele>
        <time>2017-12-09T17:57:42Z</time>
      </trkpt>
      <trkpt lat="59.856555" lon="17.5852102">
        <ele>26.5736</ele>
        <time>2017-12-09T17:57:47Z</time>
      </trkpt>
      <trkpt lat="59.8564249" lon="17.5851498">
        <ele>24.651</ele>
        <time>2017-12-09T17:57:52Z</time>
      </trkpt>
      <trkpt lat="59.8562965" lon="17.585079">
        <ele>24.1703</ele>
        <time>2017-12-09T17:57:57Z</time>
      </trkpt>
      <trkpt lat="59.8561777" lon="17.5850039">
        <ele>24.1703</ele>
        <time>2017-12-09T17:58:03Z</time>
      </trkpt>
      <trkpt lat="59.8560592" lon="17.5849149">
        <ele>24.1703</ele>
        <time>2017-12-09T17:58:08Z</time>
      </trkpt>
      <trkpt lat="59.8559782" lon="17.584732">
        <ele>24.1703</ele>
        <time>2017-12-09T17:58:13Z</time>
      </trkpt>
      <trkpt lat="59.8559271" lon="17.5844197">
        <ele>25.1317</ele>
        <time>2017-12-09T17:58:20Z</time>
      </trkpt>
      <trkpt lat="59.8558751" lon="17.5840972">
        <ele>26.5736</ele>
        <time>2017-12-09T17:58:27Z</time>
      </trkpt>
      <trkpt lat="59.8558357" lon="17.5838176">
        <ele>27.0543</ele>
        <time>2017-12-09T17:58:33Z</time>
      </trkpt>
      <trkpt lat="59.8557915" lon="17.5835497">
        <ele>27.0543</ele>
        <time>2017-12-09T17:58:39Z</time>
      </trkpt>
      <trkpt lat="59.8557567" lon="17.5832799">
        <ele>26.5736</ele>
        <time>2017-12-09T17:58:45Z</time>
      </trkpt>
      <trkpt lat="59.8557057" lon="17.5829786">
        <ele>25.1317</ele>
        <time>2017-12-09T17:58:52Z</time>
      </trkpt>
      <trkpt lat="59.8556502" lon="17.5827252">
        <ele>26.0929</ele>
        <time>2017-12-09T17:58:58Z</time>
      </trkpt>
      <trkpt lat="59.8555619" lon="17.5824708">
        <ele>26.0929</ele>
        <time>2017-12-09T17:59:05Z</time>
      </trkpt>
      <trkpt lat="59.8554766" lon="17.5823532">
        <ele>26.0929</ele>
        <time>2017-12-09T17:59:10Z</time>
      </trkpt>
      <trkpt lat="59.8553529" lon="17.5822458">
        <ele>26.0929</ele>
        <time>2017-12-09T17:59:16Z</time>
      </trkpt>
      <trkpt lat="59.8552302" lon="17.5821397">
        <ele>26.0929</ele>
        <time>2017-12-09T17:59:22Z</time>
      </trkpt>
      <trkpt lat="59.8550944" lon="17.5820104">
        <ele>26.5736</ele>
        <time>2017-12-09T17:59:29Z</time>
      </trkpt>
      <trkpt lat="59.8549683" lon="17.5819171">
        <ele>27.5349</ele>
        <time>2017-12-09T17:59:35Z</time>
      </trkpt>
      <trkpt lat="59.8548499" lon="17.5817942">
        <ele>27.5349</ele>
        <time>2017-12-09T17:59:41Z</time>
      </trkpt>
      <trkpt lat="59.8547432" lon="17.5816596">
        <ele>28.0155</ele>
        <time>2017-12-09T17:59:47Z</time>
      </trkpt>
      <trkpt lat="59.8546269" lon="17.581504">
        <ele>27.5349</ele>
        <time>2017-12-09T17:59:54Z</time>
      </trkpt>
      <trkpt lat="59.8545137" lon="17.5813917">
        <ele>27.0543</ele>
        <time>2017-12-09T18:00:00Z</time>
      </trkpt>
      <trkpt lat="59.8545179" lon="17.581237">
        <ele>26.5736</ele>
        <time>2017-12-09T18:00:04Z</time>
      </trkpt>
      <trkpt lat="59.8545794" lon="17.5810537">
        <ele>27.0543</ele>
        <time>2017-12-09T18:00:09Z</time>
      </trkpt>
      <trkpt lat="59.8546231" lon="17.5809142">
        <ele>26.5736</ele>
        <time>2017-12-09T18:00:13Z</time>
      </trkpt>
      <trkpt lat="59.8546623" lon="17.5807105">
        <ele>27.5349</ele>
        <time>2017-12-09T18:00:18Z</time>
      </trkpt>
      <trkpt lat="59.8546903" lon="17.5804196">
        <ele>28.4962</ele>
        <time>2017-12-09T18:00:25Z</time>
      </trkpt>
      <trkpt lat="59.8546821" lon="17.5802154">
        <ele>29.9381</ele>
        <time>2017-12-09T18:00:30Z</time>
      </trkpt>
      <trkpt lat="59.8546998" lon="17.5799594">
        <ele>31.8607</ele>
        <time>2017-12-09T18:00:36Z</time>
      </trkpt>
      <trkpt lat="59.8546686" lon="17.5797449">
        <ele>31.3801</ele>
        <time>2017-12-09T18:00:42Z</time>
      </trkpt>
      <trkpt lat="59.8546499" lon="17.5796708">
        <ele>31.8607</ele>
        <time>2017-12-09T18:00:44Z</time>
      </trkpt>
      <trkpt lat="59.8546297" lon="17.5793581">
        <ele>33.7834</ele>
        <time>2017-12-09T18:00:52Z</time>
      </trkpt>
      <trkpt lat="59.854615" lon="17.5791597">
        <ele>34.2642</ele>
        <time>2017-12-09T18:00:57Z</time>
      </trkpt>
      <trkpt lat="59.8546105" lon="17.5789462">
        <ele>35.2255</ele>
        <time>2017-12-09T18:01:02Z</time>
      </trkpt>
      <trkpt lat="59.8546067" lon="17.5787526">
        <ele>35.7061</ele>
        <time>2017-12-09T18:01:07Z</time>
      </trkpt>
      <trkpt lat="59.8546349" lon="17.5784861">
        <ele>37.1481</ele>
        <time>2017-12-09T18:01:13Z</time>
      </trkpt>
      <trkpt lat="59.8546542" lon="17.5782843">
        <ele>37.1481</ele>
        <time>2017-12-09T18:01:17Z</time>
      </trkpt>
      <trkpt lat="59.8546751" lon="17.5779645">
        <ele>36.1868</ele>
        <time>2017-12-09T18:01:24Z</time>
      </trkpt>
      <trkpt lat="59.8546691" lon="17.577731">
        <ele>35.2255</ele>
        <time>2017-12-09T18:01:29Z</time>
      </trkpt>
      <trkpt lat="59.8546511" lon="17.5775037">
        <ele>35.2255</ele>
        <time>2017-12-09T18:01:34Z</time>
      </trkpt>
      <trkpt lat="59.8546681" lon="17.5772731">
        <ele>34.7449</ele>
        <time>2017-12-09T18:01:39Z</time>
      </trkpt>
      <trkpt lat="59.8546981" lon="17.5770549">
        <ele>33.7834</ele>
        <time>2017-12-09T18:01:44Z</time>
      </trkpt>
      <trkpt lat="59.8547416" lon="17.5767736">
        <ele>34.7449</ele>
        <time>2017-12-09T18:01:50Z</time>
      </trkpt>
      <trkpt lat="59.854797" lon="17.5764708">
        <ele>37.1481</ele>
        <time>2017-12-09T18:01:56Z</time>
      </trkpt>
      <trkpt lat="59.8548204" lon="17.576392">
        <ele>37.1481</ele>
        <time>2017-12-09T18:01:58Z</time>
      </trkpt>
      <trkpt lat="59.8548422" lon="17.5761418">
        <ele>33.3029</ele>
        <time>2017-12-09T18:02:04Z</time>
      </trkpt>
      <trkpt lat="59.8548557" lon="17.5759299">
        <ele>32.3416</ele>
        <time>2017-12-09T18:02:09Z</time>
      </trkpt>
      <trkpt lat="59.8548668" lon="17.575806">
        <ele>31.3801</ele>
        <time>2017-12-09T18:02:12Z</time>
      </trkpt>
      <trkpt lat="59.8548725" lon="17.5755455">
        <ele>32.3416</ele>
        <time>2017-12-09T18:02:18Z</time>
      </trkpt>
      <trkpt lat="59.8548735" lon="17.5753211">
        <ele>32.8223</ele>
        <time>2017-12-09T18:02:23Z</time>
      </trkpt>
      <trkpt lat="59.8548692" lon="17.5750277">
        <ele>33.7834</ele>
        <time>2017-12-09T18:02:29Z</time>
      </trkpt>
      <trkpt lat="59.8548337" lon="17.5748301">
        <ele>33.3029</ele>
        <time>2017-12-09T18:02:34Z</time>
      </trkpt>
      <trkpt lat="59.8547676" lon="17.5746084">
        <ele>33.7834</ele>
        <time>2017-12-09T18:02:40Z</time>
      </trkpt>
      <trkpt lat="59.854728" lon="17.5744285">
        <ele>36.1868</ele>
        <time>2017-12-09T18:02:45Z</time>
      </trkpt>
      <trkpt lat="59.8546686" lon="17.5742438">
        <ele>39.0707</ele>
        <time>2017-12-09T18:02:50Z</time>
      </trkpt>
      <trkpt lat="59.854535" lon="17.5741298">
        <ele>40.9934</ele>
        <time>2017-12-09T18:02:56Z</time>
      </trkpt>
      <trkpt lat="59.8545011" lon="17.5741022">
        <ele>41.9547</ele>
        <time>2017-12-09T18:02:58Z</time>
      </trkpt>
      <trkpt lat="59.8544158" lon="17.573951">
        <ele>41.9547</ele>
        <time>2017-12-09T18:03:03Z</time>
      </trkpt>
      <trkpt lat="59.8543258" lon="17.573724">
        <ele>40.9934</ele>
        <time>2017-12-09T18:03:09Z</time>
      </trkpt>
      <trkpt lat="59.854248" lon="17.5735093">
        <ele>40.0321</ele>
        <time>2017-12-09T18:03:15Z</time>
      </trkpt>
      <trkpt lat="59.8542013" lon="17.5732105">
        <ele>38.5901</ele>
        <time>2017-12-09T18:03:21Z</time>
      </trkpt>
      <trkpt lat="59.8541773" lon="17.5729136">
        <ele>38.5901</ele>
        <time>2017-12-09T18:03:27Z</time>
      </trkpt>
      <trkpt lat="59.8541538" lon="17.5726717">
        <ele>37.6287</ele>
        <time>2017-12-09T18:03:32Z</time>
      </trkpt>
      <trkpt lat="59.8541292" lon="17.5723806">
        <ele>37.1481</ele>
        <time>2017-12-09T18:03:38Z</time>
      </trkpt>
      <trkpt lat="59.8541144" lon="17.5721174">
        <ele>37.6287</ele>
        <time>2017-12-09T18:03:43Z</time>
      </trkpt>
      <trkpt lat="59.854095" lon="17.5718195">
        <ele>37.6287</ele>
        <time>2017-12-09T18:03:49Z</time>
      </trkpt>
      <trkpt lat="59.8540711" lon="17.5715764">
        <ele>38.1094</ele>
        <time>2017-12-09T18:03:54Z</time>
      </trkpt>
      <trkpt lat="59.8540139" lon="17.5713402">
        <ele>37.6287</ele>
        <time>2017-12-09T18:03:59Z</time>
      </trkpt>
      <trkpt lat="59.8539817" lon="17.5712103">
        <ele>36.6675</ele>
        <time>2017-12-09T18:04:02Z</time>
      </trkpt>
      <trkpt lat="59.8539158" lon="17.5712226">
        <ele>36.6675</ele>
        <time>2017-12-09T18:04:07Z</time>
      </trkpt>
      <trkpt lat="59.8538323" lon="17.5713342">
        <ele>33.7834</ele>
        <time>2017-12-09T18:04:11Z</time>
      </trkpt>
      <trkpt lat="59.8537398" lon="17.5715041">
        <ele>33.3029</ele>
        <time>2017-12-09T18:04:18Z</time>
      </trkpt>
      <trkpt lat="59.8537211" lon="17.5715267">
        <ele>32.8223</ele>
        <time>2017-12-09T18:04:19Z</time>
      </trkpt>
      <trkpt lat="59.8535783" lon="17.5716997">
        <ele>33.3029</ele>
        <time>2017-12-09T18:04:27Z</time>
      </trkpt>
      <trkpt lat="59.8534777" lon="17.5717821">
        <ele>34.2642</ele>
        <time>2017-12-09T18:04:32Z</time>
      </trkpt>
      <trkpt lat="59.8533751" lon="17.5718823">
        <ele>36.1868</ele>
        <time>2017-12-09T18:04:37Z</time>
      </trkpt>
      <trkpt lat="59.8532533" lon="17.5719734">
        <ele>36.1868</ele>
        <time>2017-12-09T18:04:42Z</time>
      </trkpt>
      <trkpt lat="59.8531052" lon="17.5720586">
        <ele>36.6675</ele>
        <time>2017-12-09T18:04:48Z</time>
      </trkpt>
      <trkpt lat="59.8529564" lon="17.5721272">
        <ele>35.7061</ele>
        <time>2017-12-09T18:04:54Z</time>
      </trkpt>
      <trkpt lat="59.8528005" lon="17.5721816">
        <ele>34.2642</ele>
        <time>2017-12-09T18:05:01Z</time>
      </trkpt>
      <trkpt lat="59.8526479" lon="17.5722299">
        <ele>33.7834</ele>
        <time>2017-12-09T18:05:07Z</time>
      </trkpt>
      <trkpt lat="59.8524677" lon="17.5722775">
        <ele>34.2642</ele>
        <time>2017-12-09T18:05:14Z</time>
      </trkpt>
      <trkpt lat="59.8524085" lon="17.5722847">
        <ele>34.2642</ele>
        <time>2017-12-09T18:05:17Z</time>
      </trkpt>
      <trkpt lat="59.852276" lon="17.5723225">
        <ele>34.2642</ele>
        <time>2017-12-09T18:05:22Z</time>
      </trkpt>
      <trkpt lat="59.8521951" lon="17.5723278">
        <ele>34.7449</ele>
        <time>2017-12-09T18:05:25Z</time>
      </trkpt>
      <trkpt lat="59.8520345" lon="17.5723167">
        <ele>38.5901</ele>
        <time>2017-12-09T18:05:32Z</time>
      </trkpt>
      <trkpt lat="59.8518823" lon="17.572315">
        <ele>38.5901</ele>
        <time>2017-12-09T18:05:38Z</time>
      </trkpt>
      <trkpt lat="59.8517812" lon="17.5723132">
        <ele>38.1094</ele>
        <time>2017-12-09T18:05:43Z</time>
      </trkpt>
      <trkpt lat="59.8516326" lon="17.5723154">
        <ele>35.7061</ele>
        <time>2017-12-09T18:05:49Z</time>
      </trkpt>
      <trkpt lat="59.8514942" lon="17.5723215">
        <ele>34.2642</ele>
        <time>2017-12-09T18:05:55Z</time>
      </trkpt>
      <trkpt lat="59.8513574" lon="17.5723356">
        <ele>31.8607</ele>
        <time>2017-12-09T18:06:01Z</time>
      </trkpt>
      <trkpt lat="59.8512101" lon="17.5723732">
        <ele>30.4188</ele>
        <time>2017-12-09T18:06:07Z</time>
      </trkpt>
      <trkpt lat="59.851039" lon="17.5724007">
        <ele>28.4962</ele>
        <time>2017-12-09T18:06:14Z</time>
      </trkpt>
      <trkpt lat="59.8509245" lon="17.5724613">
        <ele>28.0155</ele>
        <time>2017-12-09T18:06:19Z</time>
      </trkpt>
      <trkpt lat="59.8507986" lon="17.5725199">
        <ele>29.4575</ele>
        <time>2017-12-09T18:06:25Z</time>
      </trkpt>
      <trkpt lat="59.850675" lon="17.5726093">
        <ele>29.9381</ele>
        <time>2017-12-09T18:06:31Z</time>
      </trkpt>
      <trkpt lat="59.8505331" lon="17.572665">
        <ele>29.4575</ele>
        <time>2017-12-09T18:06:37Z</time>
      </trkpt>
      <trkpt lat="59.850393" lon="17.572756">
        <ele>29.9381</ele>
        <time>2017-12-09T18:06:44Z</time>
      </trkpt>
      <trkpt lat="59.8503725" lon="17.5727628">
        <ele>29.9381</ele>
        <time>2017-12-09T18:06:45Z</time>
      </trkpt>
      <trkpt lat="59.8503283" lon="17.57294">
        <ele>29.4575</ele>
        <time>2017-12-09T18:06:50Z</time>
      </trkpt>
      <trkpt lat="59.8503653" lon="17.5730767">
        <ele>29.4575</ele>
        <time>2017-12-09T18:06:53Z</time>
      </trkpt>
      <trkpt lat="59.8504338" lon="17.5734267">
        <ele>29.4575</ele>
        <time>2017-12-09T18:07:01Z</time>
      </trkpt>
      <trkpt lat="59.8504888" lon="17.5736818">
        <ele>28.9769</ele>
        <time>2017-12-09T18:07:07Z</time>
      </trkpt>
      <trkpt lat="59.8505329" lon="17.5739076">
        <ele>29.9381</ele>
        <time>2017-12-09T18:07:12Z</time>
      </trkpt>
      <trkpt lat="59.8505678" lon="17.5741872">
        <ele>29.4575</ele>
        <time>2017-12-09T18:07:18Z</time>
      </trkpt>
      <trkpt lat="59.8506157" lon="17.5745019">
        <ele>27.5349</ele>
        <time>2017-12-09T18:07:25Z</time>
      </trkpt>
      <trkpt lat="59.8506567" lon="17.5748217">
        <ele>26.5736</ele>
        <time>2017-12-09T18:07:32Z</time>
      </trkpt>
      <trkpt lat="59.8506975" lon="17.5751872">
        <ele>25.6123</ele>
        <time>2017-12-09T18:07:40Z</time>
      </trkpt>
      <trkpt lat="59.8507369" lon="17.5755046">
        <ele>25.6123</ele>
        <time>2017-12-09T18:07:47Z</time>
      </trkpt>
      <trkpt lat="59.8507751" lon="17.5758169">
        <ele>25.6123</ele>
        <time>2017-12-09T18:07:54Z</time>
      </trkpt>
      <trkpt lat="59.8508216" lon="17.57614">
        <ele>24.651</ele>
        <time>2017-12-09T18:08:01Z</time>
      </trkpt>
      <trkpt lat="59.8508595" lon="17.5764172">
        <ele>25.1317</ele>
        <time>2017-12-09T18:08:07Z</time>
      </trkpt>
      <trkpt lat="59.8508719" lon="17.5766913">
        <ele>24.651</ele>
        <time>2017-12-09T18:08:13Z</time>
      </trkpt>
      <trkpt lat="59.8508462" lon="17.5769564">
        <ele>24.651</ele>
        <time>2017-12-09T18:08:19Z</time>
      </trkpt>
      <trkpt lat="59.8507882" lon="17.5771106">
        <ele>23.209</ele>
        <time>2017-12-09T18:08:24Z</time>
      </trkpt>
      <trkpt lat="59.8507373" lon="17.5773239">
        <ele>22.7283</ele>
        <time>2017-12-09T18:08:29Z</time>
      </trkpt>
      <trkpt lat="59.8506539" lon="17.5775556">
        <ele>22.2476</ele>
        <time>2017-12-09T18:08:35Z</time>
      </trkpt>
      <trkpt lat="59.8506181" lon="17.577777">
        <ele>21.2864</ele>
        <time>2017-12-09T18:08:40Z</time>
      </trkpt>
      <trkpt lat="59.8505937" lon="17.5779817">
        <ele>19.8444</ele>
        <time>2017-12-09T18:08:45Z</time>
      </trkpt>
      <trkpt lat="59.850589" lon="17.5781038">
        <ele>19.8444</ele>
        <time>2017-12-09T18:08:49Z</time>
      </trkpt>
      <trkpt lat="59.8505911" lon="17.5782232">
        <ele>19.8444</ele>
        <time>2017-12-09T18:08:53Z</time>
      </trkpt>
      <trkpt lat="59.8506554" lon="17.5785107">
        <ele>20.325</ele>
        <time>2017-12-09T18:09:00Z</time>
      </trkpt>
      <trkpt lat="59.8507089" lon="17.5787547">
        <ele>20.8057</ele>
        <time>2017-12-09T18:09:06Z</time>
      </trkpt>
      <trkpt lat="59.8507503" lon="17.5788847">
        <ele>21.2864</ele>
        <time>2017-12-09T18:09:09Z</time>
      </trkpt>
      <trkpt lat="59.8507898" lon="17.579098">
        <ele>21.767</ele>
        <time>2017-12-09T18:09:14Z</time>
      </trkpt>
      <trkpt lat="59.8508721" lon="17.5794364">
        <ele>21.767</ele>
        <time>2017-12-09T18:09:22Z</time>
      </trkpt>
      <trkpt lat="59.8509221" lon="17.5796927">
        <ele>20.8057</ele>
        <time>2017-12-09T18:09:28Z</time>
      </trkpt>
      <trkpt lat="59.8509653" lon="17.5799042">
        <ele>20.325</ele>
        <time>2017-12-09T18:09:33Z</time>
      </trkpt>
      <trkpt lat="59.8510378" lon="17.5801671">
        <ele>19.8444</ele>
        <time>2017-12-09T18:09:39Z</time>
      </trkpt>
      <trkpt lat="59.8510788" lon="17.5804224">
        <ele>19.3638</ele>
        <time>2017-12-09T18:09:45Z</time>
      </trkpt>
      <trkpt lat="59.8511395" lon="17.5806851">
        <ele>18.8831</ele>
        <time>2017-12-09T18:09:51Z</time>
      </trkpt>
      <trkpt lat="59.8511999" lon="17.5809996">
        <ele>17.9218</ele>
        <time>2017-12-09T18:09:58Z</time>
      </trkpt>
      <trkpt lat="59.8512663" lon="17.5812573">
        <ele>16.9604</ele>
        <time>2017-12-09T18:10:04Z</time>
      </trkpt>
      <trkpt lat="59.8513155" lon="17.5814789">
        <ele>16.4797</ele>
        <time>2017-12-09T18:10:09Z</time>
      </trkpt>
      <trkpt lat="59.8513806" lon="17.5817343">
        <ele>15.999</ele>
        <time>2017-12-09T18:10:15Z</time>
      </trkpt>
      <trkpt lat="59.8514133" lon="17.5819445">
        <ele>16.4797</ele>
        <time>2017-12-09T18:10:20Z</time>
      </trkpt>
      <trkpt lat="59.8514512" lon="17.5821229">
        <ele>15.5184</ele>
        <time>2017-12-09T18:10:24Z</time>
      </trkpt>
      <trkpt lat="59.8514715" lon="17.5823005">
        <ele>15.0377</ele>
        <time>2017-12-09T18:10:28Z</time>
      </trkpt>
      <trkpt lat="59.8515492" lon="17.5826712">
        <ele>15.0377</ele>
        <time>2017-12-09T18:10:37Z</time>
      </trkpt>
      <trkpt lat="59.8516242" lon="17.5829681">
        <ele>15.0377</ele>
        <time>2017-12-09T18:10:44Z</time>
      </trkpt>
      <trkpt lat="59.8516912" lon="17.5832416">
        <ele>14.557</ele>
        <time>2017-12-09T18:10:50Z</time>
      </trkpt>
      <trkpt lat="59.8517662" lon="17.5835369">
        <ele>15.0377</ele>
        <time>2017-12-09T18:10:57Z</time>
      </trkpt>
      <trkpt lat="59.8518382" lon="17.5837875">
        <ele>14.557</ele>
        <time>2017-12-09T18:11:03Z</time>
      </trkpt>
      <trkpt lat="59.8518998" lon="17.5840492">
        <ele>14.557</ele>
        <time>2017-12-09T18:11:09Z</time>
      </trkpt>
      <trkpt lat="59.8519478" lon="17.5842588">
        <ele>14.0764</ele>
        <time>2017-12-09T18:11:14Z</time>
      </trkpt>
      <trkpt lat="59.8520011" lon="17.5843993">
        <ele>13.5958</ele>
        <time>2017-12-09T18:11:18Z</time>
      </trkpt>
      <trkpt lat="59.8520314" lon="17.5844226">
        <ele>15.0377</ele>
        <time>2017-12-09T18:11:21Z</time>
      </trkpt>
      <trkpt lat="59.8520397" lon="17.5844156">
        <ele>14.0764</ele>
        <time>2017-12-09T18:11:24Z</time>
      </trkpt>
      <trkpt lat="59.8520522" lon="17.5843207">
        <ele>19.3638</ele>
        <time>2017-12-09T18:12:30Z</time>
      </trkpt>
      <trkpt lat="59.8520366" lon="17.5843388">
        <ele>19.3638</ele>
        <time>2017-12-09T18:12:33Z</time>
      </trkpt>
      <trkpt lat="59.8520371" lon="17.5844107">
        <ele>17.9218</ele>
        <time>2017-12-09T18:12:40Z</time>
      </trkpt>
      <trkpt lat="59.8520227" lon="17.5846134">
        <ele>19.3638</ele>
        <time>2017-12-09T18:12:58Z</time>
      </trkpt>
      <trkpt lat="59.8520947" lon="17.5848861">
        <ele>18.4023</ele>
        <time>2017-12-09T18:13:03Z</time>
      </trkpt>
      <trkpt lat="59.8521791" lon="17.5851451">
        <ele>16.9604</ele>
        <time>2017-12-09T18:13:09Z</time>
      </trkpt>
      <trkpt lat="59.8521987" lon="17.5852355">
        <ele>16.4797</ele>
        <time>2017-12-09T18:13:11Z</time>
      </trkpt>
      <trkpt lat="59.8523146" lon="17.5853492">
        <ele>17.4412</ele>
        <time>2017-12-09T18:13:17Z</time>
      </trkpt>
      <trkpt lat="59.8525155" lon="17.5854856">
        <ele>16.9604</ele>
        <time>2017-12-09T18:13:25Z</time>
      </trkpt>
      <trkpt lat="59.8525096" lon="17.5856312">
        <ele>16.4797</ele>
        <time>2017-12-09T18:13:29Z</time>
      </trkpt>
      <trkpt lat="59.8524882" lon="17.5856389">
        <ele>16.4797</ele>
        <time>2017-12-09T18:13:30Z</time>
      </trkpt>
      <trkpt lat="59.8523487" lon="17.5857115">
        <ele>16.4797</ele>
        <time>2017-12-09T18:13:36Z</time>
      </trkpt>
      <trkpt lat="59.8523206" lon="17.5858224">
        <ele>18.8831</ele>
        <time>2017-12-09T18:13:40Z</time>
      </trkpt>
      <trkpt lat="59.8523019" lon="17.5858766">
        <ele>19.3638</ele>
        <time>2017-12-09T18:13:42Z</time>
      </trkpt>
      <trkpt lat="59.8520987" lon="17.5860285">
        <ele>15.999</ele>
        <time>2017-12-09T18:13:48Z</time>
      </trkpt>
      <trkpt lat="59.8519766" lon="17.5860802">
        <ele>14.557</ele>
        <time>2017-12-09T18:13:52Z</time>
      </trkpt>
      <trkpt lat="59.8518563" lon="17.5861781">
        <ele>15.0377</ele>
        <time>2017-12-09T18:13:57Z</time>
      </trkpt>
      <trkpt lat="59.8518448" lon="17.5861917">
        <ele>15.5184</ele>
        <time>2017-12-09T18:13:58Z</time>
      </trkpt>
      <trkpt lat="59.8518359" lon="17.5861855">
        <ele>16.4797</ele>
        <time>2017-12-09T18:14:00Z</time>
      </trkpt>
      <trkpt lat="59.8517833" lon="17.5861425">
        <ele>15.999</ele>
        <time>2017-12-09T18:14:02Z</time>
      </trkpt>
      <trkpt lat="59.85169" lon="17.586312">
        <ele>17.4412</ele>
        <time>2017-12-09T18:14:07Z</time>
      </trkpt>
      <trkpt lat="59.8515396" lon="17.5864371">
        <ele>17.9218</ele>
        <time>2017-12-09T18:14:13Z</time>
      </trkpt>
      <trkpt lat="59.8514378" lon="17.5865616">
        <ele>15.5184</ele>
        <time>2017-12-09T18:14:19Z</time>
      </trkpt>
      <trkpt lat="59.8512966" lon="17.5866992">
        <ele>17.4412</ele>
        <time>2017-12-09T18:14:26Z</time>
      </trkpt>
      <trkpt lat="59.8511362" lon="17.5868641">
        <ele>19.3638</ele>
        <time>2017-12-09T18:14:34Z</time>
      </trkpt>
      <trkpt lat="59.8510113" lon="17.5869862">
        <ele>21.767</ele>
        <time>2017-12-09T18:14:40Z</time>
      </trkpt>
      <trkpt lat="59.8508831" lon="17.5870681">
        <ele>22.2476</ele>
        <time>2017-12-09T18:14:45Z</time>
      </trkpt>
      <trkpt lat="59.8507441" lon="17.5870587">
        <ele>22.7283</ele>
        <time>2017-12-09T18:14:51Z</time>
      </trkpt>
      <trkpt lat="59.8506064" lon="17.5869516">
        <ele>20.8057</ele>
        <time>2017-12-09T18:14:57Z</time>
      </trkpt>
      <trkpt lat="59.850464" lon="17.5868335">
        <ele>19.8444</ele>
        <time>2017-12-09T18:15:03Z</time>
      </trkpt>
      <trkpt lat="59.8503121" lon="17.5867432">
        <ele>19.3638</ele>
        <time>2017-12-09T18:15:09Z</time>
      </trkpt>
      <trkpt lat="59.8501964" lon="17.5866828">
        <ele>18.8831</ele>
        <time>2017-12-09T18:15:14Z</time>
      </trkpt>
      <trkpt lat="59.8500527" lon="17.5866632">
        <ele>18.8831</ele>
        <time>2017-12-09T18:15:20Z</time>
      </trkpt>
      <trkpt lat="59.8499573" lon="17.5866968">
        <ele>19.8444</ele>
        <time>2017-12-09T18:15:25Z</time>
      </trkpt>
      <trkpt lat="59.8498599" lon="17.5867853">
        <ele>21.767</ele>
        <time>2017-12-09T18:15:31Z</time>
      </trkpt>
      <trkpt lat="59.8497688" lon="17.5868812">
        <ele>22.7283</ele>
        <time>2017-12-09T18:15:36Z</time>
      </trkpt>
      <trkpt lat="59.8496811" lon="17.5870288">
        <ele>23.6896</ele>
        <time>2017-12-09T18:15:42Z</time>
      </trkpt>
      <trkpt lat="59.8496227" lon="17.5871318">
        <ele>23.6896</ele>
        <time>2017-12-09T18:15:46Z</time>
      </trkpt>
      <trkpt lat="59.8495559" lon="17.5873216">
        <ele>26.5736</ele>
        <time>2017-12-09T18:15:52Z</time>
      </trkpt>
      <trkpt lat="59.8495366" lon="17.5873474">
        <ele>26.5736</ele>
        <time>2017-12-09T18:15:53Z</time>
      </trkpt>
      <trkpt lat="59.8493935" lon="17.5873001">
        <ele>24.651</ele>
        <time>2017-12-09T18:15:59Z</time>
      </trkpt>
      <trkpt lat="59.84935" lon="17.5872396">
        <ele>24.1703</ele>
        <time>2017-12-09T18:16:01Z</time>
      </trkpt>
      <trkpt lat="59.8492251" lon="17.5870094">
        <ele>22.7283</ele>
        <time>2017-12-09T18:16:08Z</time>
      </trkpt>
      <trkpt lat="59.8491242" lon="17.5870504">
        <ele>20.325</ele>
        <time>2017-12-09T18:16:12Z</time>
      </trkpt>
      <trkpt lat="59.8490337" lon="17.5870745">
        <ele>20.325</ele>
        <time>2017-12-09T18:16:16Z</time>
      </trkpt>
      <trkpt lat="59.8489202" lon="17.587093">
        <ele>20.325</ele>
        <time>2017-12-09T18:16:21Z</time>
      </trkpt>
      <trkpt lat="59.8487897" lon="17.5870729">
        <ele>18.4023</ele>
        <time>2017-12-09T18:16:27Z</time>
      </trkpt>
      <trkpt lat="59.8486725" lon="17.587039">
        <ele>18.4023</ele>
        <time>2017-12-09T18:16:32Z</time>
      </trkpt>
      <trkpt lat="59.8485488" lon="17.5870269">
        <ele>18.4023</ele>
        <time>2017-12-09T18:16:37Z</time>
      </trkpt>
      <trkpt lat="59.848454" lon="17.5871094">
        <ele>19.3638</ele>
        <time>2017-12-09T18:16:42Z</time>
      </trkpt>
      <trkpt lat="59.848334" lon="17.5872529">
        <ele>19.8444</ele>
        <time>2017-12-09T18:16:49Z</time>
      </trkpt>
      <trkpt lat="59.8482281" lon="17.5873615">
        <ele>20.8057</ele>
        <time>2017-12-09T18:16:55Z</time>
      </trkpt>
      <trkpt lat="59.8481062" lon="17.5873019">
        <ele>21.2864</ele>
        <time>2017-12-09T18:17:01Z</time>
      </trkpt>
      <trkpt lat="59.8479537" lon="17.5872628">
        <ele>20.8057</ele>
        <time>2017-12-09T18:17:08Z</time>
      </trkpt>
      <trkpt lat="59.84778" lon="17.5873097">
        <ele>20.325</ele>
        <time>2017-12-09T18:17:15Z</time>
      </trkpt>
      <trkpt lat="59.8476809" lon="17.5873923">
        <ele>19.8444</ele>
        <time>2017-12-09T18:17:20Z</time>
      </trkpt>
      <trkpt lat="59.8476765" lon="17.5876309">
        <ele>17.4412</ele>
        <time>2017-12-09T18:17:26Z</time>
      </trkpt>
      <trkpt lat="59.8476822" lon="17.5877504">
        <ele>16.9604</ele>
        <time>2017-12-09T18:17:29Z</time>
      </trkpt>
      <trkpt lat="59.8476804" lon="17.5878271">
        <ele>17.4412</ele>
        <time>2017-12-09T18:17:31Z</time>
      </trkpt>
      <trkpt lat="59.84766" lon="17.5880145">
        <ele>20.325</ele>
        <time>2017-12-09T18:17:36Z</time>
      </trkpt>
      <trkpt lat="59.8476115" lon="17.5880503">
        <ele>20.325</ele>
        <time>2017-12-09T18:17:38Z</time>
      </trkpt>
      <trkpt lat="59.8474228" lon="17.5881669">
        <ele>18.8831</ele>
        <time>2017-12-09T18:17:46Z</time>
      </trkpt>
      <trkpt lat="59.8473071" lon="17.588205">
        <ele>17.4412</ele>
        <time>2017-12-09T18:17:51Z</time>
      </trkpt>
      <trkpt lat="59.8471823" lon="17.5882596">
        <ele>18.4023</ele>
        <time>2017-12-09T18:17:57Z</time>
      </trkpt>
      <trkpt lat="59.847018" lon="17.588335">
        <ele>19.8444</ele>
        <time>2017-12-09T18:18:04Z</time>
      </trkpt>
      <trkpt lat="59.8468584" lon="17.5884127">
        <ele>21.2864</ele>
        <time>2017-12-09T18:18:11Z</time>
      </trkpt>
      <trkpt lat="59.8466985" lon="17.5884498">
        <ele>22.7283</ele>
        <time>2017-12-09T18:18:18Z</time>
      </trkpt>
      <trkpt lat="59.8465431" lon="17.5884545">
        <ele>20.8057</ele>
        <time>2017-12-09T18:18:24Z</time>
      </trkpt>
      <trkpt lat="59.84647" lon="17.5884445">
        <ele>20.8057</ele>
        <time>2017-12-09T18:18:27Z</time>
      </trkpt>
      <trkpt lat="59.8463773" lon="17.5884775">
        <ele>20.325</ele>
        <time>2017-12-09T18:18:31Z</time>
      </trkpt>
      <trkpt lat="59.8462117" lon="17.5884741">
        <ele>19.3638</ele>
        <time>2017-12-09T18:18:38Z</time>
      </trkpt>
      <trkpt lat="59.8460764" lon="17.5885009">
        <ele>19.3638</ele>
        <time>2017-12-09T18:18:44Z</time>
      </trkpt>
      <trkpt lat="59.8459944" lon="17.5886187">
        <ele>18.4023</ele>
        <time>2017-12-09T18:18:49Z</time>
      </trkpt>
      <trkpt lat="59.8459586" lon="17.5888745">
        <ele>16.9604</ele>
        <time>2017-12-09T18:18:55Z</time>
      </trkpt>
      <trkpt lat="59.8459171" lon="17.5891872">
        <ele>15.0377</ele>
        <time>2017-12-09T18:19:02Z</time>
      </trkpt>
      <trkpt lat="59.8458874" lon="17.5894198">
        <ele>12.6344</ele>
        <time>2017-12-09T18:19:07Z</time>
      </trkpt>
      <trkpt lat="59.8458659" lon="17.5896312">
        <ele>11.1925</ele>
        <time>2017-12-09T18:19:12Z</time>
      </trkpt>
      <trkpt lat="59.8458592" lon="17.5898687">
        <ele>9.75061</ele>
        <time>2017-12-09T18:19:17Z</time>
      </trkpt>
      <trkpt lat="59.8458598" lon="17.5900985">
        <ele>10.2312</ele>
        <time>2017-12-09T18:19:22Z</time>
      </trkpt>
      <trkpt lat="59.8458795" lon="17.590373">
        <ele>11.1925</ele>
        <time>2017-12-09T18:19:28Z</time>
      </trkpt>
      <trkpt lat="59.8458772" lon="17.5906259">
        <ele>10.2312</ele>
        <time>2017-12-09T18:19:34Z</time>
      </trkpt>
      <trkpt lat="59.8458861" lon="17.5909729">
        <ele>10.2312</ele>
        <time>2017-12-09T18:19:42Z</time>
      </trkpt>
      <trkpt lat="59.8458143" lon="17.5911017">
        <ele>10.2312</ele>
        <time>2017-12-09T18:19:47Z</time>
      </trkpt>
      <trkpt lat="59.8456876" lon="17.5912219">
        <ele>10.2312</ele>
        <time>2017-12-09T18:19:53Z</time>
      </trkpt>
      <trkpt lat="59.8455566" lon="17.5913589">
        <ele>11.1925</ele>
        <time>2017-12-09T18:20:00Z</time>
      </trkpt>
      <trkpt lat="59.8455748" lon="17.5915717">
        <ele>12.1538</ele>
        <time>2017-12-09T18:20:05Z</time>
      </trkpt>
      <trkpt lat="59.8455936" lon="17.5916587">
        <ele>13.1151</ele>
        <time>2017-12-09T18:20:07Z</time>
      </trkpt>
      <trkpt lat="59.8456481" lon="17.5920207">
        <ele>16.4797</ele>
        <time>2017-12-09T18:20:15Z</time>
      </trkpt>
      <trkpt lat="59.8456817" lon="17.5922415">
        <ele>17.9218</ele>
        <time>2017-12-09T18:20:20Z</time>
      </trkpt>
      <trkpt lat="59.8457101" lon="17.5924665">
        <ele>16.9604</ele>
        <time>2017-12-09T18:20:25Z</time>
      </trkpt>
      <trkpt lat="59.8457472" lon="17.5926905">
        <ele>16.9604</ele>
        <time>2017-12-09T18:20:30Z</time>
      </trkpt>
      <trkpt lat="59.8457779" lon="17.5930184">
        <ele>18.4023</ele>
        <time>2017-12-09T18:20:37Z</time>
      </trkpt>
      <trkpt lat="59.8458055" lon="17.5932491">
        <ele>16.4797</ele>
        <time>2017-12-09T18:20:42Z</time>
      </trkpt>
      <trkpt lat="59.8458399" lon="17.5935322">
        <ele>15.999</ele>
        <time>2017-12-09T18:20:48Z</time>
      </trkpt>
      <trkpt lat="59.8458799" lon="17.5938629">
        <ele>15.0377</ele>
        <time>2017-12-09T18:20:55Z</time>
      </trkpt>
      <trkpt lat="59.8459182" lon="17.5941912">
        <ele>15.999</ele>
        <time>2017-12-09T18:21:02Z</time>
      </trkpt>
      <trkpt lat="59.8459535" lon="17.5944306">
        <ele>15.999</ele>
        <time>2017-12-09T18:21:07Z</time>
      </trkpt>
      <trkpt lat="59.8460027" lon="17.5947513">
        <ele>15.999</ele>
        <time>2017-12-09T18:21:14Z</time>
      </trkpt>
      <trkpt lat="59.8460391" lon="17.5950189">
        <ele>15.0377</ele>
        <time>2017-12-09T18:21:20Z</time>
      </trkpt>
      <trkpt lat="59.8460795" lon="17.5952741">
        <ele>15.5184</ele>
        <time>2017-12-09T18:21:26Z</time>
      </trkpt>
      <trkpt lat="59.8461156" lon="17.5955521">
        <ele>15.0377</ele>
        <time>2017-12-09T18:21:32Z</time>
      </trkpt>
      <trkpt lat="59.8461696" lon="17.5958437">
        <ele>16.4797</ele>
        <time>2017-12-09T18:21:38Z</time>
      </trkpt>
      <trkpt lat="59.84621" lon="17.5961603">
        <ele>17.9218</ele>
        <time>2017-12-09T18:21:45Z</time>
      </trkpt>
      <trkpt lat="59.8462421" lon="17.5964634">
        <ele>17.9218</ele>
        <time>2017-12-09T18:21:52Z</time>
      </trkpt>
      <trkpt lat="59.8462673" lon="17.5967342">
        <ele>17.9218</ele>
        <time>2017-12-09T18:21:58Z</time>
      </trkpt>
      <trkpt lat="59.8463108" lon="17.5969932">
        <ele>17.4412</ele>
        <time>2017-12-09T18:22:04Z</time>
      </trkpt>
      <trkpt lat="59.8463417" lon="17.5972656">
        <ele>17.4412</ele>
        <time>2017-12-09T18:22:10Z</time>
      </trkpt>
      <trkpt lat="59.846355" lon="17.5975048">
        <ele>15.999</ele>
        <time>2017-12-09T18:22:15Z</time>
      </trkpt>
      <trkpt lat="59.8463838" lon="17.5977763">
        <ele>15.999</ele>
        <time>2017-12-09T18:22:21Z</time>
      </trkpt>
      <trkpt lat="59.8464144" lon="17.5980562">
        <ele>15.0377</ele>
        <time>2017-12-09T18:22:27Z</time>
      </trkpt>
      <trkpt lat="59.8464414" lon="17.5982764">
        <ele>15.0377</ele>
        <time>2017-12-09T18:22:32Z</time>
      </trkpt>
      <trkpt lat="59.8464923" lon="17.5986135">
        <ele>15.0377</ele>
        <time>2017-12-09T18:22:39Z</time>
      </trkpt>
      <trkpt lat="59.8465281" lon="17.5988824">
        <ele>15.5184</ele>
        <time>2017-12-09T18:22:45Z</time>
      </trkpt>
      <trkpt lat="59.8465613" lon="17.5991937">
        <ele>15.5184</ele>
        <time>2017-12-09T18:22:52Z</time>
      </trkpt>
      <trkpt lat="59.8465281" lon="17.5994168">
        <ele>15.0377</ele>
        <time>2017-12-09T18:22:57Z</time>
      </trkpt>
      <trkpt lat="59.8465533" lon="17.5996362">
        <ele>14.557</ele>
        <time>2017-12-09T18:23:02Z</time>
      </trkpt>
      <trkpt lat="59.846599" lon="17.5999578">
        <ele>13.5958</ele>
        <time>2017-12-09T18:23:09Z</time>
      </trkpt>
      <trkpt lat="59.8466276" lon="17.6001855">
        <ele>13.5958</ele>
        <time>2017-12-09T18:23:14Z</time>
      </trkpt>
      <trkpt lat="59.8466501" lon="17.6004575">
        <ele>13.5958</ele>
        <time>2017-12-09T18:23:20Z</time>
      </trkpt>
      <trkpt lat="59.8466792" lon="17.6007153">
        <ele>12.6344</ele>
        <time>2017-12-09T18:23:26Z</time>
      </trkpt>
      <trkpt lat="59.8467165" lon="17.6009541">
        <ele>13.1151</ele>
        <time>2017-12-09T18:23:31Z</time>
      </trkpt>
      <trkpt lat="59.8467578" lon="17.6012553">
        <ele>12.6344</ele>
        <time>2017-12-09T18:23:38Z</time>
      </trkpt>
      <trkpt lat="59.8467977" lon="17.6014703">
        <ele>13.1151</ele>
        <time>2017-12-09T18:23:43Z</time>
      </trkpt>
      <trkpt lat="59.8468279" lon="17.6016523">
        <ele>13.1151</ele>
        <time>2017-12-09T18:23:47Z</time>
      </trkpt>
      <trkpt lat="59.8468833" lon="17.6019233">
        <ele>14.557</ele>
        <time>2017-12-09T18:23:53Z</time>
      </trkpt>
      <trkpt lat="59.8469341" lon="17.6021687">
        <ele>15.999</ele>
        <time>2017-12-09T18:23:59Z</time>
      </trkpt>
      <trkpt lat="59.8469776" lon="17.6023688">
        <ele>16.9604</ele>
        <time>2017-12-09T18:24:04Z</time>
      </trkpt>
      <trkpt lat="59.8470198" lon="17.6026385">
        <ele>16.4797</ele>
        <time>2017-12-09T18:24:10Z</time>
      </trkpt>
      <trkpt lat="59.8470586" lon="17.602846">
        <ele>15.5184</ele>
        <time>2017-12-09T18:24:15Z</time>
      </trkpt>
      <trkpt lat="59.8470865" lon="17.6030199">
        <ele>15.5184</ele>
        <time>2017-12-09T18:24:19Z</time>
      </trkpt>
      <trkpt lat="59.8471378" lon="17.6032718">
        <ele>15.0377</ele>
        <time>2017-12-09T18:24:25Z</time>
      </trkpt>
      <trkpt lat="59.8471791" lon="17.6035233">
        <ele>14.557</ele>
        <time>2017-12-09T18:24:31Z</time>
      </trkpt>
      <trkpt lat="59.8472507" lon="17.6037534">
        <ele>14.0764</ele>
        <time>2017-12-09T18:24:37Z</time>
      </trkpt>
      <trkpt lat="59.8472838" lon="17.6040087">
        <ele>13.5958</ele>
        <time>2017-12-09T18:24:43Z</time>
      </trkpt>
      <trkpt lat="59.8472665" lon="17.6042832">
        <ele>14.557</ele>
        <time>2017-12-09T18:24:49Z</time>
      </trkpt>
      <trkpt lat="59.8472145" lon="17.6045921">
        <ele>13.1151</ele>
        <time>2017-12-09T18:24:56Z</time>
      </trkpt>
      <trkpt lat="59.8471522" lon="17.6048893">
        <ele>11.6732</ele>
        <time>2017-12-09T18:25:03Z</time>
      </trkpt>
      <trkpt lat="59.8471382" lon="17.6049859">
        <ele>11.1925</ele>
        <time>2017-12-09T18:25:05Z</time>
      </trkpt>
      <trkpt lat="59.8471966" lon="17.605282">
        <ele>9.75061</ele>
        <time>2017-12-09T18:25:12Z</time>
      </trkpt>
      <trkpt lat="59.8472013" lon="17.6053232">
        <ele>9.75061</ele>
        <time>2017-12-09T18:25:13Z</time>
      </trkpt>
      <trkpt lat="59.8472062" lon="17.6054125">
        <ele>9.2699</ele>
        <time>2017-12-09T18:25:15Z</time>
      </trkpt>
      <trkpt lat="59.8471537" lon="17.6057254">
        <ele>8.30859</ele>
        <time>2017-12-09T18:25:22Z</time>
      </trkpt>
      <trkpt lat="59.8471615" lon="17.6059917">
        <ele>13.5958</ele>
        <time>2017-12-09T18:25:28Z</time>
      </trkpt>
      <trkpt lat="59.8471751" lon="17.6062998">
        <ele>18.4023</ele>
        <time>2017-12-09T18:25:34Z</time>
      </trkpt>
      <trkpt lat="59.847198" lon="17.6065386">
        <ele>20.325</ele>
        <time>2017-12-09T18:25:39Z</time>
      </trkpt>
      <trkpt lat="59.8472078" lon="17.6068758">
        <ele>21.2864</ele>
        <time>2017-12-09T18:25:46Z</time>
      </trkpt>
      <trkpt lat="59.8472165" lon="17.6071106">
        <ele>21.2864</ele>
        <time>2017-12-09T18:25:51Z</time>
      </trkpt>
      <trkpt lat="59.8472046" lon="17.6073888">
        <ele>22.2476</ele>
        <time>2017-12-09T18:25:57Z</time>
      </trkpt>
      <trkpt lat="59.847159" lon="17.6076643">
        <ele>22.2476</ele>
        <time>2017-12-09T18:26:03Z</time>
      </trkpt>
      <trkpt lat="59.8471517" lon="17.6079244">
        <ele>22.2476</ele>
        <time>2017-12-09T18:26:09Z</time>
      </trkpt>
      <trkpt lat="59.8471294" lon="17.6082491">
        <ele>21.2864</ele>
        <time>2017-12-09T18:26:16Z</time>
      </trkpt>
      <trkpt lat="59.847133" lon="17.6085312">
        <ele>20.8057</ele>
        <time>2017-12-09T18:26:22Z</time>
      </trkpt>
      <trkpt lat="59.8471016" lon="17.6088324">
        <ele>19.3638</ele>
        <time>2017-12-09T18:26:29Z</time>
      </trkpt>
      <trkpt lat="59.8471072" lon="17.6090665">
        <ele>20.8057</ele>
        <time>2017-12-09T18:26:34Z</time>
      </trkpt>
      <trkpt lat="59.8471148" lon="17.6092427">
        <ele>19.8444</ele>
        <time>2017-12-09T18:26:38Z</time>
      </trkpt>
      <trkpt lat="59.8472197" lon="17.6093129">
        <ele>20.325</ele>
        <time>2017-12-09T18:26:44Z</time>
      </trkpt>
      <trkpt lat="59.8473398" lon="17.6093027">
        <ele>20.8057</ele>
        <time>2017-12-09T18:26:49Z</time>
      </trkpt>
      <trkpt lat="59.8473867" lon="17.6093058">
        <ele>21.2864</ele>
        <time>2017-12-09T18:26:51Z</time>
      </trkpt>
      <trkpt lat="59.847538" lon="17.6093484">
        <ele>21.767</ele>
        <time>2017-12-09T18:26:57Z</time>
      </trkpt>
      <trkpt lat="59.8476873" lon="17.6094244">
        <ele>23.209</ele>
        <time>2017-12-09T18:27:04Z</time>
      </trkpt>
      <trkpt lat="59.8478249" lon="17.6094705">
        <ele>23.6896</ele>
        <time>2017-12-09T18:27:10Z</time>
      </trkpt>
      <trkpt lat="59.8479483" lon="17.6095069">
        <ele>25.1317</ele>
        <time>2017-12-09T18:27:15Z</time>
      </trkpt>
      <trkpt lat="59.8481557" lon="17.6096099">
        <ele>28.4962</ele>
        <time>2017-12-09T18:27:23Z</time>
      </trkpt>
      <trkpt lat="59.8482803" lon="17.6096705">
        <ele>26.5736</ele>
        <time>2017-12-09T18:27:29Z</time>
      </trkpt>
      <trkpt lat="59.8484576" lon="17.609784">
        <ele>24.1703</ele>
        <time>2017-12-09T18:27:37Z</time>
      </trkpt>
      <trkpt lat="59.8485947" lon="17.6098218">
        <ele>25.1317</ele>
        <time>2017-12-09T18:27:43Z</time>
      </trkpt>
      <trkpt lat="59.8487043" lon="17.6098485">
        <ele>25.6123</ele>
        <time>2017-12-09T18:27:48Z</time>
      </trkpt>
      <trkpt lat="59.8488289" lon="17.6098646">
        <ele>24.651</ele>
        <time>2017-12-09T18:27:53Z</time>
      </trkpt>
      <trkpt lat="59.8489441" lon="17.609913">
        <ele>24.1703</ele>
        <time>2017-12-09T18:27:58Z</time>
      </trkpt>
      <trkpt lat="59.8490284" lon="17.6100055">
        <ele>24.651</ele>
        <time>2017-12-09T18:28:02Z</time>
      </trkpt>
      <trkpt lat="59.8491379" lon="17.6100964">
        <ele>25.6123</ele>
        <time>2017-12-09T18:28:07Z</time>
      </trkpt>
      <trkpt lat="59.849274" lon="17.6101674">
        <ele>28.0155</ele>
        <time>2017-12-09T18:28:13Z</time>
      </trkpt>
      <trkpt lat="59.849393" lon="17.6102247">
        <ele>29.4575</ele>
        <time>2017-12-09T18:28:18Z</time>
      </trkpt>
      <trkpt lat="59.8495394" lon="17.6103093">
        <ele>29.9381</ele>
        <time>2017-12-09T18:28:24Z</time>
      </trkpt>
      <trkpt lat="59.8496801" lon="17.6104271">
        <ele>29.9381</ele>
        <time>2017-12-09T18:28:30Z</time>
      </trkpt>
      <trkpt lat="59.8498644" lon="17.6105548">
        <ele>28.4962</ele>
        <time>2017-12-09T18:28:38Z</time>
      </trkpt>
      <trkpt lat="59.8499749" lon="17.6106505">
        <ele>28.0155</ele>
        <time>2017-12-09T18:28:43Z</time>
      </trkpt>
      <trkpt lat="59.8501278" lon="17.6107095">
        <ele>28.0155</ele>
        <time>2017-12-09T18:28:49Z</time>
      </trkpt>
      <trkpt lat="59.8502308" lon="17.6108125">
        <ele>27.0543</ele>
        <time>2017-12-09T18:28:54Z</time>
      </trkpt>
      <trkpt lat="59.8503825" lon="17.6109283">
        <ele>25.1317</ele>
        <time>2017-12-09T18:29:01Z</time>
      </trkpt>
      <trkpt lat="59.8505043" lon="17.6110371">
        <ele>24.651</ele>
        <time>2017-12-09T18:29:07Z</time>
      </trkpt>
      <trkpt lat="59.8506354" lon="17.6111431">
        <ele>25.1317</ele>
        <time>2017-12-09T18:29:13Z</time>
      </trkpt>
      <trkpt lat="59.8507612" lon="17.6112362">
        <ele>24.1703</ele>
        <time>2017-12-09T18:29:19Z</time>
      </trkpt>
      <trkpt lat="59.85091" lon="17.6113629">
        <ele>23.6896</ele>
        <time>2017-12-09T18:29:26Z</time>
      </trkpt>
      <trkpt lat="59.851041" lon="17.6114635">
        <ele>23.209</ele>
        <time>2017-12-09T18:29:32Z</time>
      </trkpt>
      <trkpt lat="59.8511781" lon="17.6115772">
        <ele>23.6896</ele>
        <time>2017-12-09T18:29:38Z</time>
      </trkpt>
      <trkpt lat="59.8513145" lon="17.6116836">
        <ele>23.209</ele>
        <time>2017-12-09T18:29:44Z</time>
      </trkpt>
      <trkpt lat="59.8514562" lon="17.6117958">
        <ele>23.6896</ele>
        <time>2017-12-09T18:29:50Z</time>
      </trkpt>
      <trkpt lat="59.8515992" lon="17.6119278">
        <ele>23.209</ele>
        <time>2017-12-09T18:29:57Z</time>
      </trkpt>
      <trkpt lat="59.8517237" lon="17.6120497">
        <ele>23.209</ele>
        <time>2017-12-09T18:30:03Z</time>
      </trkpt>
      <trkpt lat="59.8518411" lon="17.6122206">
        <ele>22.7283</ele>
        <time>2017-12-09T18:30:09Z</time>
      </trkpt>
      <trkpt lat="59.8519652" lon="17.6124287">
        <ele>22.2476</ele>
        <time>2017-12-09T18:30:16Z</time>
      </trkpt>
      <trkpt lat="59.8520949" lon="17.6127126">
        <ele>22.2476</ele>
        <time>2017-12-09T18:30:24Z</time>
      </trkpt>
      <trkpt lat="59.8522125" lon="17.6129393">
        <ele>23.209</ele>
        <time>2017-12-09T18:30:31Z</time>
      </trkpt>
      <trkpt lat="59.8522881" lon="17.6130531">
        <ele>22.2476</ele>
        <time>2017-12-09T18:30:36Z</time>
      </trkpt>
      <trkpt lat="59.8523919" lon="17.6130447">
        <ele>23.209</ele>
        <time>2017-12-09T18:30:41Z</time>
      </trkpt>
      <trkpt lat="59.852424" lon="17.6130009">
        <ele>22.7283</ele>
        <time>2017-12-09T18:30:43Z</time>
      </trkpt>
      <trkpt lat="59.8524448" lon="17.6129433">
        <ele>22.2476</ele>
        <time>2017-12-09T18:30:45Z</time>
      </trkpt>
      <trkpt lat="59.8524563" lon="17.6128212">
        <ele>22.2476</ele>
        <time>2017-12-09T18:30:48Z</time>
      </trkpt>
      <trkpt lat="59.8524116" lon="17.6125838">
        <ele>21.2864</ele>
        <time>2017-12-09T18:30:54Z</time>
      </trkpt>
      <trkpt lat="59.8523379" lon="17.6123948">
        <ele>19.8444</ele>
        <time>2017-12-09T18:30:59Z</time>
      </trkpt>
      <trkpt lat="59.8522671" lon="17.6121593">
        <ele>18.4023</ele>
        <time>2017-12-09T18:31:06Z</time>
      </trkpt>
      <trkpt lat="59.8522011" lon="17.6120118">
        <ele>18.4023</ele>
        <time>2017-12-09T18:31:10Z</time>
      </trkpt>
      <trkpt lat="59.8521043" lon="17.6118196">
        <ele>19.3638</ele>
        <time>2017-12-09T18:31:16Z</time>
      </trkpt>
      <trkpt lat="59.8519968" lon="17.611625">
        <ele>19.8444</ele>
        <time>2017-12-09T18:31:22Z</time>
      </trkpt>
      <trkpt lat="59.851947" lon="17.6114845">
        <ele>21.767</ele>
        <time>2017-12-09T18:31:26Z</time>
      </trkpt>
      <trkpt lat="59.8519029" lon="17.6113771">
        <ele>21.767</ele>
        <time>2017-12-09T18:31:29Z</time>
      </trkpt>
      <trkpt lat="59.8517895" lon="17.6111441">
        <ele>19.8444</ele>
        <time>2017-12-09T18:31:36Z</time>
      </trkpt>
      <trkpt lat="59.8517216" lon="17.6109008">
        <ele>18.4023</ele>
        <time>2017-12-09T18:31:42Z</time>
      </trkpt>
      <trkpt lat="59.8516689" lon="17.610676">
        <ele>17.9218</ele>
        <time>2017-12-09T18:31:47Z</time>
      </trkpt>
      <trkpt lat="59.8516344" lon="17.6104033">
        <ele>19.3638</ele>
        <time>2017-12-09T18:31:53Z</time>
      </trkpt>
      <trkpt lat="59.8516635" lon="17.6101547">
        <ele>18.8831</ele>
        <time>2017-12-09T18:31:59Z</time>
      </trkpt>
      <trkpt lat="59.8516313" lon="17.6100119">
        <ele>18.8831</ele>
        <time>2017-12-09T18:32:03Z</time>
      </trkpt>
      <trkpt lat="59.8515165" lon="17.6098524">
        <ele>18.8831</ele>
        <time>2017-12-09T18:32:10Z</time>
      </trkpt>
      <trkpt lat="59.8513795" lon="17.6096845">
        <ele>17.9218</ele>
        <time>2017-12-09T18:32:17Z</time>
      </trkpt>
      <trkpt lat="59.8512782" lon="17.6095773">
        <ele>19.3638</ele>
        <time>2017-12-09T18:32:22Z</time>
      </trkpt>
      <trkpt lat="59.8511756" lon="17.6094597">
        <ele>19.3638</ele>
        <time>2017-12-09T18:32:27Z</time>
      </trkpt>
      <trkpt lat="59.8510214" lon="17.6093084">
        <ele>19.8444</ele>
        <time>2017-12-09T18:32:34Z</time>
      </trkpt>
      <trkpt lat="59.8508725" lon="17.6091799">
        <ele>21.2864</ele>
        <time>2017-12-09T18:32:40Z</time>
      </trkpt>
      <trkpt lat="59.850741" lon="17.6090447">
        <ele>21.767</ele>
        <time>2017-12-09T18:32:46Z</time>
      </trkpt>
      <trkpt lat="59.850639" lon="17.6089308">
        <ele>21.767</ele>
        <time>2017-12-09T18:32:51Z</time>
      </trkpt>
      <trkpt lat="59.8505007" lon="17.6087519">
        <ele>22.2476</ele>
        <time>2017-12-09T18:32:58Z</time>
      </trkpt>
      <trkpt lat="59.8503639" lon="17.6086086">
        <ele>22.2476</ele>
        <time>2017-12-09T18:33:04Z</time>
      </trkpt>
      <trkpt lat="59.8502265" lon="17.6084893">
        <ele>22.2476</ele>
        <time>2017-12-09T18:33:10Z</time>
      </trkpt>
      <trkpt lat="59.8501101" lon="17.6083325">
        <ele>23.209</ele>
        <time>2017-12-09T18:33:16Z</time>
      </trkpt>
      <trkpt lat="59.8500327" lon="17.6081719">
        <ele>21.767</ele>
        <time>2017-12-09T18:33:21Z</time>
      </trkpt>
      <trkpt lat="59.8499531" lon="17.6079288">
        <ele>21.767</ele>
        <time>2017-12-09T18:33:27Z</time>
      </trkpt>
      <trkpt lat="59.8498555" lon="17.6078079">
        <ele>21.767</ele>
        <time>2017-12-09T18:33:32Z</time>
      </trkpt>
      <trkpt lat="59.8497206" lon="17.6077068">
        <ele>22.7283</ele>
        <time>2017-12-09T18:33:38Z</time>
      </trkpt>
      <trkpt lat="59.8495791" lon="17.6075457">
        <ele>23.209</ele>
        <time>2017-12-09T18:33:45Z</time>
      </trkpt>
      <trkpt lat="59.8494538" lon="17.6073679">
        <ele>23.209</ele>
        <time>2017-12-09T18:33:52Z</time>
      </trkpt>
      <trkpt lat="59.8493215" lon="17.6071939">
        <ele>24.1703</ele>
        <time>2017-12-09T18:33:59Z</time>
      </trkpt>
      <trkpt lat="59.8493039" lon="17.6071668">
        <ele>24.1703</ele>
        <time>2017-12-09T18:34:00Z</time>
      </trkpt>
      <trkpt lat="59.8492792" lon="17.607097">
        <ele>22.7283</ele>
        <time>2017-12-09T18:34:06Z</time>
      </trkpt>
    </trkseg>
  </trk>
</gpx>